<?xml version="1.0" encoding="UTF-8" standalone="no" ?>
<gpx xmlns="http://www.topografix.com/GPX/1/1" xmlns:xsi="http://www.w3.org/2001/XMLSchema-instance" xsi:schemaLocation="http://www.topografix.com/GPX/1/1 http://www.topografix.com/GPX/1/1/gpx.xsd" version="1.1" creator="VisuGPX - https://www.visugpx.com">
  <metadata>
    <name>cabane d'arizes</name>
    <desc><![CDATA[Une belle petite rando vers la cabane d'Arizes au depart de la route du tourmalet parking sur la route juste au dessus du lieu dit Artigues un ancien relais sur la droite en venant de bagneres ]]></desc>
  </metadata>
  <wpt lat="42.93679" lon="0.16299">
    <ele>1793.1000976562</ele>
    <name><![CDATA[Cabane d'arizes]]></name>
    <cmt><![CDATA[Cabane d'arizes]]></cmt>
  </wpt>
  <trk>
    <name><![CDATA[Cabane d,Rizes]]></name>
    <trkseg>
      <trkpt lat="42.92711" lon="0.1991">
        <ele>1346.4000244141</ele>
        <time>2018-09-21T08:51:41Z</time>
      </trkpt>
      <trkpt lat="42.92719" lon="0.19919">
        <ele>1327.5999755859</ele>
        <time>2018-09-21T08:51:59Z</time>
      </trkpt>
      <trkpt lat="42.92715" lon="0.19908">
        <ele>1318</ele>
        <time>2018-09-21T08:55:05Z</time>
      </trkpt>
      <trkpt lat="42.92711" lon="0.19897">
        <ele>1315.9000244141</ele>
        <time>2018-09-21T08:55:16Z</time>
      </trkpt>
      <trkpt lat="42.92709" lon="0.19885">
        <ele>1314.9000244141</ele>
        <time>2018-09-21T08:55:28Z</time>
      </trkpt>
      <trkpt lat="42.92713" lon="0.19872">
        <ele>1315.5</ele>
        <time>2018-09-21T08:55:38Z</time>
      </trkpt>
      <trkpt lat="42.92699" lon="0.19854">
        <ele>1327.0999755859</ele>
        <time>2018-09-21T08:56:10Z</time>
      </trkpt>
      <trkpt lat="42.92695" lon="0.19839">
        <ele>1327.3000488281</ele>
        <time>2018-09-21T08:58:30Z</time>
      </trkpt>
      <trkpt lat="42.92703" lon="0.19832">
        <ele>1330.8000488281</ele>
        <time>2018-09-21T08:59:00Z</time>
      </trkpt>
      <trkpt lat="42.92712" lon="0.1983">
        <ele>1333.8000488281</ele>
        <time>2018-09-21T08:59:28Z</time>
      </trkpt>
      <trkpt lat="42.92719" lon="0.19822">
        <ele>1335.0999755859</ele>
        <time>2018-09-21T08:59:46Z</time>
      </trkpt>
      <trkpt lat="42.92725" lon="0.19813">
        <ele>1337</ele>
        <time>2018-09-21T09:00:07Z</time>
      </trkpt>
      <trkpt lat="42.9272" lon="0.19803">
        <ele>1336</ele>
        <time>2018-09-21T09:00:47Z</time>
      </trkpt>
      <trkpt lat="42.92711" lon="0.19799">
        <ele>1338.1999511719</ele>
        <time>2018-09-21T09:01:02Z</time>
      </trkpt>
      <trkpt lat="42.92701" lon="0.19797">
        <ele>1341.0999755859</ele>
        <time>2018-09-21T09:01:17Z</time>
      </trkpt>
      <trkpt lat="42.92695" lon="0.19787">
        <ele>1342.3000488281</ele>
        <time>2018-09-21T09:01:30Z</time>
      </trkpt>
      <trkpt lat="42.92693" lon="0.19774">
        <ele>1344.1999511719</ele>
        <time>2018-09-21T09:01:48Z</time>
      </trkpt>
      <trkpt lat="42.92694" lon="0.19762">
        <ele>1345.0999755859</ele>
        <time>2018-09-21T09:02:03Z</time>
      </trkpt>
      <trkpt lat="42.92696" lon="0.19749">
        <ele>1346.3000488281</ele>
        <time>2018-09-21T09:02:21Z</time>
      </trkpt>
      <trkpt lat="42.92693" lon="0.19737">
        <ele>1349.5</ele>
        <time>2018-09-21T09:02:37Z</time>
      </trkpt>
      <trkpt lat="42.92693" lon="0.19724">
        <ele>1353.1999511719</ele>
        <time>2018-09-21T09:02:57Z</time>
      </trkpt>
      <trkpt lat="42.9269" lon="0.19712">
        <ele>1357.9000244141</ele>
        <time>2018-09-21T09:03:19Z</time>
      </trkpt>
      <trkpt lat="42.92686" lon="0.19701">
        <ele>1359.8000488281</ele>
        <time>2018-09-21T09:03:39Z</time>
      </trkpt>
      <trkpt lat="42.92683" lon="0.19689">
        <ele>1362.6999511719</ele>
        <time>2018-09-21T09:03:57Z</time>
      </trkpt>
      <trkpt lat="42.92685" lon="0.19677">
        <ele>1364.6999511719</ele>
        <time>2018-09-21T09:04:28Z</time>
      </trkpt>
      <trkpt lat="42.92683" lon="0.19664">
        <ele>1368</ele>
        <time>2018-09-21T09:04:47Z</time>
      </trkpt>
      <trkpt lat="42.92684" lon="0.19651">
        <ele>1372</ele>
        <time>2018-09-21T09:05:05Z</time>
      </trkpt>
      <trkpt lat="42.92685" lon="0.19638">
        <ele>1373.5999755859</ele>
        <time>2018-09-21T09:05:27Z</time>
      </trkpt>
      <trkpt lat="42.92682" lon="0.19627">
        <ele>1376</ele>
        <time>2018-09-21T09:05:49Z</time>
      </trkpt>
      <trkpt lat="42.92673" lon="0.19621">
        <ele>1379.0999755859</ele>
        <time>2018-09-21T09:06:17Z</time>
      </trkpt>
      <trkpt lat="42.92667" lon="0.19612">
        <ele>1385.1999511719</ele>
        <time>2018-09-21T09:06:47Z</time>
      </trkpt>
      <trkpt lat="42.9266" lon="0.19602">
        <ele>1388.9000244141</ele>
        <time>2018-09-21T09:07:10Z</time>
      </trkpt>
      <trkpt lat="42.92655" lon="0.19592">
        <ele>1391.3000488281</ele>
        <time>2018-09-21T09:07:25Z</time>
      </trkpt>
      <trkpt lat="42.92646" lon="0.19586">
        <ele>1395.6999511719</ele>
        <time>2018-09-21T09:07:54Z</time>
      </trkpt>
      <trkpt lat="42.92637" lon="0.19582">
        <ele>1398</ele>
        <time>2018-09-21T09:08:08Z</time>
      </trkpt>
      <trkpt lat="42.92629" lon="0.19575">
        <ele>1399</ele>
        <time>2018-09-21T09:08:29Z</time>
      </trkpt>
      <trkpt lat="42.92632" lon="0.19563">
        <ele>1400.3000488281</ele>
        <time>2018-09-21T09:08:47Z</time>
      </trkpt>
      <trkpt lat="42.92632" lon="0.1955">
        <ele>1403.5</ele>
        <time>2018-09-21T09:09:04Z</time>
      </trkpt>
      <trkpt lat="42.92633" lon="0.19538">
        <ele>1406.6999511719</ele>
        <time>2018-09-21T09:09:29Z</time>
      </trkpt>
      <trkpt lat="42.92635" lon="0.19525">
        <ele>1410.4000244141</ele>
        <time>2018-09-21T09:09:52Z</time>
      </trkpt>
      <trkpt lat="42.92639" lon="0.19514">
        <ele>1415.9000244141</ele>
        <time>2018-09-21T09:10:17Z</time>
      </trkpt>
      <trkpt lat="42.92636" lon="0.19501">
        <ele>1419.1999511719</ele>
        <time>2018-09-21T09:10:36Z</time>
      </trkpt>
      <trkpt lat="42.92634" lon="0.19488">
        <ele>1419</ele>
        <time>2018-09-21T09:10:49Z</time>
      </trkpt>
      <trkpt lat="42.92635" lon="0.19475">
        <ele>1420.4000244141</ele>
        <time>2018-09-21T09:11:08Z</time>
      </trkpt>
      <trkpt lat="42.92633" lon="0.19463">
        <ele>1422.1999511719</ele>
        <time>2018-09-21T09:11:26Z</time>
      </trkpt>
      <trkpt lat="42.92631" lon="0.19447">
        <ele>1422.5999755859</ele>
        <time>2018-09-21T09:11:43Z</time>
      </trkpt>
      <trkpt lat="42.92631" lon="0.19432">
        <ele>1425.1999511719</ele>
        <time>2018-09-21T09:11:59Z</time>
      </trkpt>
      <trkpt lat="42.92629" lon="0.19419">
        <ele>1425.5</ele>
        <time>2018-09-21T09:12:12Z</time>
      </trkpt>
      <trkpt lat="42.92627" lon="0.19406">
        <ele>1427.1999511719</ele>
        <time>2018-09-21T09:12:25Z</time>
      </trkpt>
      <trkpt lat="42.92623" lon="0.19394">
        <ele>1428.8000488281</ele>
        <time>2018-09-21T09:12:38Z</time>
      </trkpt>
      <trkpt lat="42.92623" lon="0.19382">
        <ele>1431.1999511719</ele>
        <time>2018-09-21T09:12:52Z</time>
      </trkpt>
      <trkpt lat="42.92617" lon="0.19371">
        <ele>1434.4000244141</ele>
        <time>2018-09-21T09:13:00Z</time>
      </trkpt>
      <trkpt lat="42.92614" lon="0.19359">
        <ele>1437.9000244141</ele>
        <time>2018-09-21T09:13:16Z</time>
      </trkpt>
      <trkpt lat="42.92607" lon="0.1935">
        <ele>1440.3000488281</ele>
        <time>2018-09-21T09:13:30Z</time>
      </trkpt>
      <trkpt lat="42.92598" lon="0.19345">
        <ele>1443.8000488281</ele>
        <time>2018-09-21T09:13:46Z</time>
      </trkpt>
      <trkpt lat="42.9259" lon="0.19342">
        <ele>1450.0999755859</ele>
        <time>2018-09-21T09:14:07Z</time>
      </trkpt>
      <trkpt lat="42.9258" lon="0.1934">
        <ele>1451</ele>
        <time>2018-09-21T09:14:21Z</time>
      </trkpt>
      <trkpt lat="42.92571" lon="0.19338">
        <ele>1451.6999511719</ele>
        <time>2018-09-21T09:14:33Z</time>
      </trkpt>
      <trkpt lat="42.92563" lon="0.19332">
        <ele>1456.8000488281</ele>
        <time>2018-09-21T09:16:58Z</time>
      </trkpt>
      <trkpt lat="42.92554" lon="0.19327">
        <ele>1456.5</ele>
        <time>2018-09-21T09:17:14Z</time>
      </trkpt>
      <trkpt lat="42.92551" lon="0.19315">
        <ele>1456.5999755859</ele>
        <time>2018-09-21T09:17:28Z</time>
      </trkpt>
      <trkpt lat="42.92544" lon="0.19306">
        <ele>1459.5</ele>
        <time>2018-09-21T09:17:42Z</time>
      </trkpt>
      <trkpt lat="42.92537" lon="0.19297">
        <ele>1457.9000244141</ele>
        <time>2018-09-21T09:18:56Z</time>
      </trkpt>
      <trkpt lat="42.9253" lon="0.1929">
        <ele>1460.0999755859</ele>
        <time>2018-09-21T09:19:15Z</time>
      </trkpt>
      <trkpt lat="42.92553" lon="0.193">
        <ele>1459.5999755859</ele>
        <time>2018-09-21T09:21:48Z</time>
      </trkpt>
      <trkpt lat="42.92562" lon="0.19298">
        <ele>1446.6999511719</ele>
        <time>2018-09-21T09:24:27Z</time>
      </trkpt>
      <trkpt lat="42.92577" lon="0.193">
        <ele>1451.0999755859</ele>
        <time>2018-09-21T09:24:48Z</time>
      </trkpt>
      <trkpt lat="42.92567" lon="0.19296">
        <ele>1446.3000488281</ele>
        <time>2018-09-21T09:25:09Z</time>
      </trkpt>
      <trkpt lat="42.92545" lon="0.19296">
        <ele>1446.6999511719</ele>
        <time>2018-09-21T09:25:54Z</time>
      </trkpt>
      <trkpt lat="42.92536" lon="0.19295">
        <ele>1463.4000244141</ele>
        <time>2018-09-21T09:29:53Z</time>
      </trkpt>
      <trkpt lat="42.92533" lon="0.19283">
        <ele>1464.4000244141</ele>
        <time>2018-09-21T09:30:02Z</time>
      </trkpt>
      <trkpt lat="42.92532" lon="0.1927">
        <ele>1466.5</ele>
        <time>2018-09-21T09:30:13Z</time>
      </trkpt>
      <trkpt lat="42.92535" lon="0.19257">
        <ele>1467.1999511719</ele>
        <time>2018-09-21T09:30:25Z</time>
      </trkpt>
      <trkpt lat="42.92535" lon="0.19244">
        <ele>1467.6999511719</ele>
        <time>2018-09-21T09:30:35Z</time>
      </trkpt>
      <trkpt lat="42.92537" lon="0.19231">
        <ele>1467.6999511719</ele>
        <time>2018-09-21T09:30:46Z</time>
      </trkpt>
      <trkpt lat="42.92538" lon="0.19219">
        <ele>1467.9000244141</ele>
        <time>2018-09-21T09:30:55Z</time>
      </trkpt>
      <trkpt lat="42.92541" lon="0.19207">
        <ele>1467</ele>
        <time>2018-09-21T09:31:07Z</time>
      </trkpt>
      <trkpt lat="42.92545" lon="0.19195">
        <ele>1468.5</ele>
        <time>2018-09-21T09:31:19Z</time>
      </trkpt>
      <trkpt lat="42.92546" lon="0.19183">
        <ele>1468.5999755859</ele>
        <time>2018-09-21T09:31:30Z</time>
      </trkpt>
      <trkpt lat="42.92544" lon="0.1917">
        <ele>1469.4000244141</ele>
        <time>2018-09-21T09:31:40Z</time>
      </trkpt>
      <trkpt lat="42.92551" lon="0.19161">
        <ele>1469.3000488281</ele>
        <time>2018-09-21T09:31:52Z</time>
      </trkpt>
      <trkpt lat="42.92556" lon="0.1915">
        <ele>1471.1999511719</ele>
        <time>2018-09-21T09:32:04Z</time>
      </trkpt>
      <trkpt lat="42.92559" lon="0.19138">
        <ele>1470.9000244141</ele>
        <time>2018-09-21T09:32:16Z</time>
      </trkpt>
      <trkpt lat="42.92562" lon="0.19125">
        <ele>1472</ele>
        <time>2018-09-21T09:32:28Z</time>
      </trkpt>
      <trkpt lat="42.92565" lon="0.19113">
        <ele>1472.4000244141</ele>
        <time>2018-09-21T09:32:40Z</time>
      </trkpt>
      <trkpt lat="42.92566" lon="0.19101">
        <ele>1474</ele>
        <time>2018-09-21T09:32:50Z</time>
      </trkpt>
      <trkpt lat="42.92571" lon="0.1909">
        <ele>1474.9000244141</ele>
        <time>2018-09-21T09:33:04Z</time>
      </trkpt>
      <trkpt lat="42.92576" lon="0.1908">
        <ele>1477</ele>
        <time>2018-09-21T09:33:19Z</time>
      </trkpt>
      <trkpt lat="42.92579" lon="0.19067">
        <ele>1478.8000488281</ele>
        <time>2018-09-21T09:33:34Z</time>
      </trkpt>
      <trkpt lat="42.92582" lon="0.19055">
        <ele>1479.1999511719</ele>
        <time>2018-09-21T09:33:48Z</time>
      </trkpt>
      <trkpt lat="42.92581" lon="0.19042">
        <ele>1479.6999511719</ele>
        <time>2018-09-21T09:34:02Z</time>
      </trkpt>
      <trkpt lat="42.92588" lon="0.19033">
        <ele>1481.6999511719</ele>
        <time>2018-09-21T09:34:27Z</time>
      </trkpt>
      <trkpt lat="42.92589" lon="0.1902">
        <ele>1482.1999511719</ele>
        <time>2018-09-21T09:34:38Z</time>
      </trkpt>
      <trkpt lat="42.92592" lon="0.19008">
        <ele>1483.9000244141</ele>
        <time>2018-09-21T09:34:53Z</time>
      </trkpt>
      <trkpt lat="42.92596" lon="0.18996">
        <ele>1483.6999511719</ele>
        <time>2018-09-21T09:35:05Z</time>
      </trkpt>
      <trkpt lat="42.926" lon="0.18985">
        <ele>1484.9000244141</ele>
        <time>2018-09-21T09:35:19Z</time>
      </trkpt>
      <trkpt lat="42.92602" lon="0.18973">
        <ele>1486.0999755859</ele>
        <time>2018-09-21T09:35:30Z</time>
      </trkpt>
      <trkpt lat="42.926" lon="0.18961">
        <ele>1487.9000244141</ele>
        <time>2018-09-21T09:35:43Z</time>
      </trkpt>
      <trkpt lat="42.92605" lon="0.18949">
        <ele>1491.9000244141</ele>
        <time>2018-09-21T09:35:56Z</time>
      </trkpt>
      <trkpt lat="42.92609" lon="0.18938">
        <ele>1495.4000244141</ele>
        <time>2018-09-21T09:36:23Z</time>
      </trkpt>
      <trkpt lat="42.92608" lon="0.18925">
        <ele>1497.3000488281</ele>
        <time>2018-09-21T09:36:34Z</time>
      </trkpt>
      <trkpt lat="42.92606" lon="0.18913">
        <ele>1500.5999755859</ele>
        <time>2018-09-21T09:36:47Z</time>
      </trkpt>
      <trkpt lat="42.92605" lon="0.18901">
        <ele>1501.9000244141</ele>
        <time>2018-09-21T09:37:02Z</time>
      </trkpt>
      <trkpt lat="42.92604" lon="0.18888">
        <ele>1502.5</ele>
        <time>2018-09-21T09:37:15Z</time>
      </trkpt>
      <trkpt lat="42.92601" lon="0.18876">
        <ele>1504.6999511719</ele>
        <time>2018-09-21T09:37:26Z</time>
      </trkpt>
      <trkpt lat="42.92596" lon="0.18866">
        <ele>1505.0999755859</ele>
        <time>2018-09-21T09:37:54Z</time>
      </trkpt>
      <trkpt lat="42.92592" lon="0.18855">
        <ele>1507.4000244141</ele>
        <time>2018-09-21T09:38:08Z</time>
      </trkpt>
      <trkpt lat="42.92591" lon="0.18842">
        <ele>1508.5</ele>
        <time>2018-09-21T09:38:22Z</time>
      </trkpt>
      <trkpt lat="42.92591" lon="0.18829">
        <ele>1509.5</ele>
        <time>2018-09-21T09:38:44Z</time>
      </trkpt>
      <trkpt lat="42.92593" lon="0.18817">
        <ele>1512</ele>
        <time>2018-09-21T09:39:02Z</time>
      </trkpt>
      <trkpt lat="42.92593" lon="0.18804">
        <ele>1513.5999755859</ele>
        <time>2018-09-21T09:39:14Z</time>
      </trkpt>
      <trkpt lat="42.92595" lon="0.18791">
        <ele>1515.9000244141</ele>
        <time>2018-09-21T09:39:32Z</time>
      </trkpt>
      <trkpt lat="42.92598" lon="0.18779">
        <ele>1517.5</ele>
        <time>2018-09-21T09:40:04Z</time>
      </trkpt>
      <trkpt lat="42.92601" lon="0.18768">
        <ele>1519.5</ele>
        <time>2018-09-21T09:40:19Z</time>
      </trkpt>
      <trkpt lat="42.92601" lon="0.18755">
        <ele>1522.0999755859</ele>
        <time>2018-09-21T09:40:32Z</time>
      </trkpt>
      <trkpt lat="42.92605" lon="0.18743">
        <ele>1524.5999755859</ele>
        <time>2018-09-21T09:40:48Z</time>
      </trkpt>
      <trkpt lat="42.92609" lon="0.18731">
        <ele>1530</ele>
        <time>2018-09-21T09:41:07Z</time>
      </trkpt>
      <trkpt lat="42.9261" lon="0.18718">
        <ele>1533.3000488281</ele>
        <time>2018-09-21T09:41:20Z</time>
      </trkpt>
      <trkpt lat="42.92609" lon="0.18706">
        <ele>1534.5999755859</ele>
        <time>2018-09-21T09:41:31Z</time>
      </trkpt>
      <trkpt lat="42.92609" lon="0.18693">
        <ele>1534.5999755859</ele>
        <time>2018-09-21T09:41:41Z</time>
      </trkpt>
      <trkpt lat="42.92611" lon="0.1868">
        <ele>1538.0999755859</ele>
        <time>2018-09-21T09:41:56Z</time>
      </trkpt>
      <trkpt lat="42.92613" lon="0.18668">
        <ele>1540.0999755859</ele>
        <time>2018-09-21T09:42:32Z</time>
      </trkpt>
      <trkpt lat="42.92616" lon="0.18655">
        <ele>1542.4000244141</ele>
        <time>2018-09-21T09:42:46Z</time>
      </trkpt>
      <trkpt lat="42.92619" lon="0.18643">
        <ele>1543.8000488281</ele>
        <time>2018-09-21T09:43:11Z</time>
      </trkpt>
      <trkpt lat="42.92624" lon="0.18633">
        <ele>1544.3000488281</ele>
        <time>2018-09-21T09:43:34Z</time>
      </trkpt>
      <trkpt lat="42.92624" lon="0.1862">
        <ele>1545.1999511719</ele>
        <time>2018-09-21T09:43:58Z</time>
      </trkpt>
      <trkpt lat="42.92627" lon="0.18607">
        <ele>1545.8000488281</ele>
        <time>2018-09-21T09:44:11Z</time>
      </trkpt>
      <trkpt lat="42.92627" lon="0.18594">
        <ele>1547.5999755859</ele>
        <time>2018-09-21T09:45:07Z</time>
      </trkpt>
      <trkpt lat="42.92633" lon="0.18583">
        <ele>1554.1999511719</ele>
        <time>2018-09-21T09:45:22Z</time>
      </trkpt>
      <trkpt lat="42.9264" lon="0.18575">
        <ele>1561.3999023438</ele>
        <time>2018-09-21T09:45:37Z</time>
      </trkpt>
      <trkpt lat="42.92646" lon="0.18565">
        <ele>1566.3000488281</ele>
        <time>2018-09-21T09:46:23Z</time>
      </trkpt>
      <trkpt lat="42.92652" lon="0.18556">
        <ele>1570.5</ele>
        <time>2018-09-21T09:46:38Z</time>
      </trkpt>
      <trkpt lat="42.92659" lon="0.18547">
        <ele>1574.8000488281</ele>
        <time>2018-09-21T09:46:51Z</time>
      </trkpt>
      <trkpt lat="42.92662" lon="0.18535">
        <ele>1579.1999511719</ele>
        <time>2018-09-21T09:47:13Z</time>
      </trkpt>
      <trkpt lat="42.92669" lon="0.18528">
        <ele>1582</ele>
        <time>2018-09-21T09:47:24Z</time>
      </trkpt>
      <trkpt lat="42.92676" lon="0.18519">
        <ele>1584.3000488281</ele>
        <time>2018-09-21T09:47:36Z</time>
      </trkpt>
      <trkpt lat="42.92681" lon="0.18509">
        <ele>1587.1000976562</ele>
        <time>2018-09-21T09:47:48Z</time>
      </trkpt>
      <trkpt lat="42.92683" lon="0.18496">
        <ele>1593.1000976562</ele>
        <time>2018-09-21T09:48:01Z</time>
      </trkpt>
      <trkpt lat="42.92691" lon="0.18487">
        <ele>1593.6000976562</ele>
        <time>2018-09-21T09:48:14Z</time>
      </trkpt>
      <trkpt lat="42.92697" lon="0.18477">
        <ele>1592.8999023438</ele>
        <time>2018-09-21T09:48:25Z</time>
      </trkpt>
      <trkpt lat="42.92705" lon="0.18469">
        <ele>1590.5</ele>
        <time>2018-09-21T09:48:37Z</time>
      </trkpt>
      <trkpt lat="42.92712" lon="0.18461">
        <ele>1588.6000976562</ele>
        <time>2018-09-21T09:48:48Z</time>
      </trkpt>
      <trkpt lat="42.9272" lon="0.18455">
        <ele>1587.8999023438</ele>
        <time>2018-09-21T09:48:59Z</time>
      </trkpt>
      <trkpt lat="42.92729" lon="0.18449">
        <ele>1588.1999511719</ele>
        <time>2018-09-21T09:49:10Z</time>
      </trkpt>
      <trkpt lat="42.92739" lon="0.18447">
        <ele>1586.8000488281</ele>
        <time>2018-09-21T09:49:22Z</time>
      </trkpt>
      <trkpt lat="42.92749" lon="0.18443">
        <ele>1585.3000488281</ele>
        <time>2018-09-21T10:01:24Z</time>
      </trkpt>
      <trkpt lat="42.92757" lon="0.1844">
        <ele>1585.3999023438</ele>
        <time>2018-09-21T10:01:31Z</time>
      </trkpt>
      <trkpt lat="42.9276" lon="0.18427">
        <ele>1585.6999511719</ele>
        <time>2018-09-21T10:01:45Z</time>
      </trkpt>
      <trkpt lat="42.92765" lon="0.18416">
        <ele>1585.8999023438</ele>
        <time>2018-09-21T10:01:57Z</time>
      </trkpt>
      <trkpt lat="42.92772" lon="0.18408">
        <ele>1584.3000488281</ele>
        <time>2018-09-21T10:02:16Z</time>
      </trkpt>
      <trkpt lat="42.92781" lon="0.18404">
        <ele>1584.8000488281</ele>
        <time>2018-09-21T10:02:32Z</time>
      </trkpt>
      <trkpt lat="42.92787" lon="0.18394">
        <ele>1587.6000976562</ele>
        <time>2018-09-21T10:02:46Z</time>
      </trkpt>
      <trkpt lat="42.9279" lon="0.18382">
        <ele>1590.5</ele>
        <time>2018-09-21T10:03:01Z</time>
      </trkpt>
      <trkpt lat="42.92794" lon="0.18371">
        <ele>1592.8000488281</ele>
        <time>2018-09-21T10:03:13Z</time>
      </trkpt>
      <trkpt lat="42.92797" lon="0.18359">
        <ele>1594.3999023438</ele>
        <time>2018-09-21T10:03:26Z</time>
      </trkpt>
      <trkpt lat="42.92798" lon="0.18346">
        <ele>1596.3999023438</ele>
        <time>2018-09-21T10:03:44Z</time>
      </trkpt>
      <trkpt lat="42.92799" lon="0.18333">
        <ele>1598.1000976562</ele>
        <time>2018-09-21T10:03:57Z</time>
      </trkpt>
      <trkpt lat="42.92802" lon="0.1832">
        <ele>1599.3000488281</ele>
        <time>2018-09-21T10:04:15Z</time>
      </trkpt>
      <trkpt lat="42.92804" lon="0.18308">
        <ele>1600.1999511719</ele>
        <time>2018-09-21T10:04:27Z</time>
      </trkpt>
      <trkpt lat="42.92809" lon="0.18298">
        <ele>1601.3000488281</ele>
        <time>2018-09-21T10:04:42Z</time>
      </trkpt>
      <trkpt lat="42.92811" lon="0.18285">
        <ele>1603.1000976562</ele>
        <time>2018-09-21T10:04:54Z</time>
      </trkpt>
      <trkpt lat="42.92815" lon="0.18274">
        <ele>1603.6999511719</ele>
        <time>2018-09-21T10:05:09Z</time>
      </trkpt>
      <trkpt lat="42.92822" lon="0.18265">
        <ele>1606.8000488281</ele>
        <time>2018-09-21T10:05:24Z</time>
      </trkpt>
      <trkpt lat="42.92829" lon="0.18255">
        <ele>1608</ele>
        <time>2018-09-21T10:05:35Z</time>
      </trkpt>
      <trkpt lat="42.92833" lon="0.18243">
        <ele>1609.3999023438</ele>
        <time>2018-09-21T10:05:49Z</time>
      </trkpt>
      <trkpt lat="42.92839" lon="0.18232">
        <ele>1607.6999511719</ele>
        <time>2018-09-21T10:06:02Z</time>
      </trkpt>
      <trkpt lat="42.92842" lon="0.1822">
        <ele>1609.1000976562</ele>
        <time>2018-09-21T10:06:14Z</time>
      </trkpt>
      <trkpt lat="42.92847" lon="0.18209">
        <ele>1609.1000976562</ele>
        <time>2018-09-21T10:06:28Z</time>
      </trkpt>
      <trkpt lat="42.92852" lon="0.18198">
        <ele>1611.6999511719</ele>
        <time>2018-09-21T10:06:41Z</time>
      </trkpt>
      <trkpt lat="42.92859" lon="0.18189">
        <ele>1612</ele>
        <time>2018-09-21T10:06:55Z</time>
      </trkpt>
      <trkpt lat="42.92865" lon="0.18179">
        <ele>1613.8000488281</ele>
        <time>2018-09-21T10:07:08Z</time>
      </trkpt>
      <trkpt lat="42.92873" lon="0.18172">
        <ele>1615.1999511719</ele>
        <time>2018-09-21T10:07:19Z</time>
      </trkpt>
      <trkpt lat="42.92879" lon="0.18163">
        <ele>1615.8999023438</ele>
        <time>2018-09-21T10:07:31Z</time>
      </trkpt>
      <trkpt lat="42.92885" lon="0.18152">
        <ele>1616.1000976562</ele>
        <time>2018-09-21T10:07:44Z</time>
      </trkpt>
      <trkpt lat="42.9289" lon="0.18142">
        <ele>1614.8999023438</ele>
        <time>2018-09-21T10:07:59Z</time>
      </trkpt>
      <trkpt lat="42.92898" lon="0.18135">
        <ele>1613.8999023438</ele>
        <time>2018-09-21T10:08:09Z</time>
      </trkpt>
      <trkpt lat="42.92907" lon="0.1813">
        <ele>1613.8999023438</ele>
        <time>2018-09-21T10:08:18Z</time>
      </trkpt>
      <trkpt lat="42.92916" lon="0.18125">
        <ele>1614.8000488281</ele>
        <time>2018-09-21T10:08:28Z</time>
      </trkpt>
      <trkpt lat="42.92924" lon="0.18117">
        <ele>1616.1000976562</ele>
        <time>2018-09-21T10:08:41Z</time>
      </trkpt>
      <trkpt lat="42.92931" lon="0.18109">
        <ele>1615.6999511719</ele>
        <time>2018-09-21T10:08:50Z</time>
      </trkpt>
      <trkpt lat="42.92936" lon="0.18098">
        <ele>1616.1000976562</ele>
        <time>2018-09-21T10:09:00Z</time>
      </trkpt>
      <trkpt lat="42.92944" lon="0.18091">
        <ele>1617</ele>
        <time>2018-09-21T10:09:10Z</time>
      </trkpt>
      <trkpt lat="42.92949" lon="0.1808">
        <ele>1616.8000488281</ele>
        <time>2018-09-21T10:09:20Z</time>
      </trkpt>
      <trkpt lat="42.92952" lon="0.18068">
        <ele>1613.3999023438</ele>
        <time>2018-09-21T10:09:36Z</time>
      </trkpt>
      <trkpt lat="42.92958" lon="0.18057">
        <ele>1613.1999511719</ele>
        <time>2018-09-21T10:09:47Z</time>
      </trkpt>
      <trkpt lat="42.92964" lon="0.18047">
        <ele>1615.3999023438</ele>
        <time>2018-09-21T10:09:57Z</time>
      </trkpt>
      <trkpt lat="42.92965" lon="0.18034">
        <ele>1617.5</ele>
        <time>2018-09-21T10:10:07Z</time>
      </trkpt>
      <trkpt lat="42.92966" lon="0.18021">
        <ele>1618.3000488281</ele>
        <time>2018-09-21T10:10:19Z</time>
      </trkpt>
      <trkpt lat="42.9297" lon="0.18009">
        <ele>1621.1999511719</ele>
        <time>2018-09-21T10:10:32Z</time>
      </trkpt>
      <trkpt lat="42.9297" lon="0.17997">
        <ele>1620.6999511719</ele>
        <time>2018-09-21T10:10:41Z</time>
      </trkpt>
      <trkpt lat="42.92971" lon="0.17985">
        <ele>1620.8000488281</ele>
        <time>2018-09-21T10:10:50Z</time>
      </trkpt>
      <trkpt lat="42.92972" lon="0.17971">
        <ele>1621.6999511719</ele>
        <time>2018-09-21T10:11:00Z</time>
      </trkpt>
      <trkpt lat="42.92977" lon="0.17959">
        <ele>1621.6000976562</ele>
        <time>2018-09-21T10:11:11Z</time>
      </trkpt>
      <trkpt lat="42.92982" lon="0.17947">
        <ele>1621.1000976562</ele>
        <time>2018-09-21T10:11:22Z</time>
      </trkpt>
      <trkpt lat="42.92983" lon="0.17935">
        <ele>1620.1999511719</ele>
        <time>2018-09-21T10:11:31Z</time>
      </trkpt>
      <trkpt lat="42.92987" lon="0.17921">
        <ele>1618.1000976562</ele>
        <time>2018-09-21T10:11:43Z</time>
      </trkpt>
      <trkpt lat="42.92992" lon="0.17911">
        <ele>1619.8999023438</ele>
        <time>2018-09-21T10:11:54Z</time>
      </trkpt>
      <trkpt lat="42.92998" lon="0.17901">
        <ele>1621.6000976562</ele>
        <time>2018-09-21T10:12:06Z</time>
      </trkpt>
      <trkpt lat="42.93003" lon="0.1789">
        <ele>1623.3000488281</ele>
        <time>2018-09-21T10:12:18Z</time>
      </trkpt>
      <trkpt lat="42.93008" lon="0.17879">
        <ele>1622.8999023438</ele>
        <time>2018-09-21T10:12:32Z</time>
      </trkpt>
      <trkpt lat="42.93009" lon="0.17866">
        <ele>1623.1000976562</ele>
        <time>2018-09-21T10:12:43Z</time>
      </trkpt>
      <trkpt lat="42.93016" lon="0.17859">
        <ele>1625.5</ele>
        <time>2018-09-21T10:13:27Z</time>
      </trkpt>
      <trkpt lat="42.9302" lon="0.17847">
        <ele>1625.1999511719</ele>
        <time>2018-09-21T10:13:41Z</time>
      </trkpt>
      <trkpt lat="42.93025" lon="0.17837">
        <ele>1626.3999023438</ele>
        <time>2018-09-21T10:13:52Z</time>
      </trkpt>
      <trkpt lat="42.9303" lon="0.17825">
        <ele>1627.6999511719</ele>
        <time>2018-09-21T10:14:02Z</time>
      </trkpt>
      <trkpt lat="42.93034" lon="0.17814">
        <ele>1630.3999023438</ele>
        <time>2018-09-21T10:14:12Z</time>
      </trkpt>
      <trkpt lat="42.93037" lon="0.17802">
        <ele>1630.8000488281</ele>
        <time>2018-09-21T10:14:22Z</time>
      </trkpt>
      <trkpt lat="42.93041" lon="0.17791">
        <ele>1631.8999023438</ele>
        <time>2018-09-21T10:14:34Z</time>
      </trkpt>
      <trkpt lat="42.93042" lon="0.17779">
        <ele>1633</ele>
        <time>2018-09-21T10:14:44Z</time>
      </trkpt>
      <trkpt lat="42.93046" lon="0.17767">
        <ele>1633.6000976562</ele>
        <time>2018-09-21T10:14:54Z</time>
      </trkpt>
      <trkpt lat="42.93052" lon="0.17757">
        <ele>1635.5</ele>
        <time>2018-09-21T10:15:05Z</time>
      </trkpt>
      <trkpt lat="42.93057" lon="0.17746">
        <ele>1635.8999023438</ele>
        <time>2018-09-21T10:15:44Z</time>
      </trkpt>
      <trkpt lat="42.93063" lon="0.17735">
        <ele>1637.5</ele>
        <time>2018-09-21T10:15:54Z</time>
      </trkpt>
      <trkpt lat="42.93069" lon="0.17724">
        <ele>1638.6999511719</ele>
        <time>2018-09-21T10:16:05Z</time>
      </trkpt>
      <trkpt lat="42.93076" lon="0.17716">
        <ele>1640.5</ele>
        <time>2018-09-21T10:16:15Z</time>
      </trkpt>
      <trkpt lat="42.93079" lon="0.17704">
        <ele>1640.6999511719</ele>
        <time>2018-09-21T10:16:24Z</time>
      </trkpt>
      <trkpt lat="42.93084" lon="0.17693">
        <ele>1641.1999511719</ele>
        <time>2018-09-21T10:16:35Z</time>
      </trkpt>
      <trkpt lat="42.93088" lon="0.17682">
        <ele>1641.3999023438</ele>
        <time>2018-09-21T10:16:44Z</time>
      </trkpt>
      <trkpt lat="42.93094" lon="0.1767">
        <ele>1643.1999511719</ele>
        <time>2018-09-21T10:16:54Z</time>
      </trkpt>
      <trkpt lat="42.93098" lon="0.17659">
        <ele>1645</ele>
        <time>2018-09-21T10:17:03Z</time>
      </trkpt>
      <trkpt lat="42.93105" lon="0.1765">
        <ele>1644.5</ele>
        <time>2018-09-21T10:17:12Z</time>
      </trkpt>
      <trkpt lat="42.93113" lon="0.17643">
        <ele>1644.5</ele>
        <time>2018-09-21T10:17:56Z</time>
      </trkpt>
      <trkpt lat="42.93118" lon="0.17633">
        <ele>1644.8999023438</ele>
        <time>2018-09-21T10:18:08Z</time>
      </trkpt>
      <trkpt lat="42.93124" lon="0.17622">
        <ele>1641.8000488281</ele>
        <time>2018-09-21T10:18:30Z</time>
      </trkpt>
      <trkpt lat="42.93126" lon="0.1761">
        <ele>1642.6000976562</ele>
        <time>2018-09-21T10:18:40Z</time>
      </trkpt>
      <trkpt lat="42.9313" lon="0.17599">
        <ele>1642.8000488281</ele>
        <time>2018-09-21T10:18:50Z</time>
      </trkpt>
      <trkpt lat="42.93136" lon="0.17589">
        <ele>1643.6999511719</ele>
        <time>2018-09-21T10:19:01Z</time>
      </trkpt>
      <trkpt lat="42.93139" lon="0.17577">
        <ele>1646.5</ele>
        <time>2018-09-21T10:19:12Z</time>
      </trkpt>
      <trkpt lat="42.93143" lon="0.17566">
        <ele>1648.3000488281</ele>
        <time>2018-09-21T10:19:22Z</time>
      </trkpt>
      <trkpt lat="42.93151" lon="0.17559">
        <ele>1648.5</ele>
        <time>2018-09-21T10:19:36Z</time>
      </trkpt>
      <trkpt lat="42.93159" lon="0.17552">
        <ele>1648.8999023438</ele>
        <time>2018-09-21T10:19:52Z</time>
      </trkpt>
      <trkpt lat="42.93164" lon="0.17542">
        <ele>1649.8000488281</ele>
        <time>2018-09-21T10:20:12Z</time>
      </trkpt>
      <trkpt lat="42.93174" lon="0.1754">
        <ele>1650.6999511719</ele>
        <time>2018-09-21T10:20:27Z</time>
      </trkpt>
      <trkpt lat="42.93181" lon="0.17531">
        <ele>1651.6000976562</ele>
        <time>2018-09-21T10:20:38Z</time>
      </trkpt>
      <trkpt lat="42.93182" lon="0.17519">
        <ele>1653</ele>
        <time>2018-09-21T10:21:23Z</time>
      </trkpt>
      <trkpt lat="42.93179" lon="0.17507">
        <ele>1655.1000976562</ele>
        <time>2018-09-21T10:21:37Z</time>
      </trkpt>
      <trkpt lat="42.93183" lon="0.17496">
        <ele>1655.6000976562</ele>
        <time>2018-09-21T10:26:03Z</time>
      </trkpt>
      <trkpt lat="42.93185" lon="0.17483">
        <ele>1655.8999023438</ele>
        <time>2018-09-21T10:26:17Z</time>
      </trkpt>
      <trkpt lat="42.93183" lon="0.1747">
        <ele>1656</ele>
        <time>2018-09-21T10:26:27Z</time>
      </trkpt>
      <trkpt lat="42.93185" lon="0.17457">
        <ele>1657.8000488281</ele>
        <time>2018-09-21T10:26:38Z</time>
      </trkpt>
      <trkpt lat="42.93188" lon="0.17445">
        <ele>1657.1999511719</ele>
        <time>2018-09-21T10:26:48Z</time>
      </trkpt>
      <trkpt lat="42.93191" lon="0.17432">
        <ele>1657.3999023438</ele>
        <time>2018-09-21T10:27:00Z</time>
      </trkpt>
      <trkpt lat="42.93191" lon="0.1742">
        <ele>1658.6000976562</ele>
        <time>2018-09-21T10:27:10Z</time>
      </trkpt>
      <trkpt lat="42.93195" lon="0.17408">
        <ele>1660.6000976562</ele>
        <time>2018-09-21T10:27:24Z</time>
      </trkpt>
      <trkpt lat="42.93198" lon="0.17396">
        <ele>1659.6999511719</ele>
        <time>2018-09-21T10:27:37Z</time>
      </trkpt>
      <trkpt lat="42.93205" lon="0.17387">
        <ele>1660.5</ele>
        <time>2018-09-21T10:27:59Z</time>
      </trkpt>
      <trkpt lat="42.93211" lon="0.17378">
        <ele>1662.6000976562</ele>
        <time>2018-09-21T10:28:16Z</time>
      </trkpt>
      <trkpt lat="42.9321" lon="0.17366">
        <ele>1662.3999023438</ele>
        <time>2018-09-21T10:28:32Z</time>
      </trkpt>
      <trkpt lat="42.93216" lon="0.17354">
        <ele>1663.3999023438</ele>
        <time>2018-09-21T10:28:45Z</time>
      </trkpt>
      <trkpt lat="42.93218" lon="0.17342">
        <ele>1662.6999511719</ele>
        <time>2018-09-21T10:28:55Z</time>
      </trkpt>
      <trkpt lat="42.93224" lon="0.17332">
        <ele>1661.5</ele>
        <time>2018-09-21T10:29:06Z</time>
      </trkpt>
      <trkpt lat="42.9323" lon="0.17322">
        <ele>1661.3999023438</ele>
        <time>2018-09-21T10:29:18Z</time>
      </trkpt>
      <trkpt lat="42.93233" lon="0.1731">
        <ele>1661.6000976562</ele>
        <time>2018-09-21T10:29:28Z</time>
      </trkpt>
      <trkpt lat="42.93238" lon="0.17299">
        <ele>1662.8999023438</ele>
        <time>2018-09-21T10:29:40Z</time>
      </trkpt>
      <trkpt lat="42.93241" lon="0.17288">
        <ele>1663.5</ele>
        <time>2018-09-21T10:29:52Z</time>
      </trkpt>
      <trkpt lat="42.93244" lon="0.17275">
        <ele>1663.3000488281</ele>
        <time>2018-09-21T10:30:03Z</time>
      </trkpt>
      <trkpt lat="42.93244" lon="0.17262">
        <ele>1664.6000976562</ele>
        <time>2018-09-21T10:30:15Z</time>
      </trkpt>
      <trkpt lat="42.93245" lon="0.17249">
        <ele>1665.1000976562</ele>
        <time>2018-09-21T10:30:27Z</time>
      </trkpt>
      <trkpt lat="42.93245" lon="0.17237">
        <ele>1665.3000488281</ele>
        <time>2018-09-21T10:30:37Z</time>
      </trkpt>
      <trkpt lat="42.93247" lon="0.17224">
        <ele>1664.3999023438</ele>
        <time>2018-09-21T10:30:50Z</time>
      </trkpt>
      <trkpt lat="42.93251" lon="0.17212">
        <ele>1664.8999023438</ele>
        <time>2018-09-21T10:31:40Z</time>
      </trkpt>
      <trkpt lat="42.93253" lon="0.17199">
        <ele>1665.5</ele>
        <time>2018-09-21T10:31:52Z</time>
      </trkpt>
      <trkpt lat="42.93256" lon="0.17188">
        <ele>1666.6999511719</ele>
        <time>2018-09-21T10:32:05Z</time>
      </trkpt>
      <trkpt lat="42.9326" lon="0.17177">
        <ele>1669.8999023438</ele>
        <time>2018-09-21T10:32:18Z</time>
      </trkpt>
      <trkpt lat="42.93265" lon="0.17166">
        <ele>1671.1000976562</ele>
        <time>2018-09-21T10:32:28Z</time>
      </trkpt>
      <trkpt lat="42.93267" lon="0.17153">
        <ele>1672.8999023438</ele>
        <time>2018-09-21T10:32:41Z</time>
      </trkpt>
      <trkpt lat="42.93268" lon="0.17141">
        <ele>1674.5</ele>
        <time>2018-09-21T10:32:52Z</time>
      </trkpt>
      <trkpt lat="42.93268" lon="0.17128">
        <ele>1677.8999023438</ele>
        <time>2018-09-21T10:34:00Z</time>
      </trkpt>
      <trkpt lat="42.9327" lon="0.17116">
        <ele>1677.8999023438</ele>
        <time>2018-09-21T10:34:19Z</time>
      </trkpt>
      <trkpt lat="42.93274" lon="0.17105">
        <ele>1678.6999511719</ele>
        <time>2018-09-21T10:34:36Z</time>
      </trkpt>
      <trkpt lat="42.93276" lon="0.17093">
        <ele>1679.6999511719</ele>
        <time>2018-09-21T10:34:52Z</time>
      </trkpt>
      <trkpt lat="42.93275" lon="0.1708">
        <ele>1682</ele>
        <time>2018-09-21T10:35:58Z</time>
      </trkpt>
      <trkpt lat="42.93273" lon="0.17067">
        <ele>1682.8000488281</ele>
        <time>2018-09-21T10:36:10Z</time>
      </trkpt>
      <trkpt lat="42.93273" lon="0.17055">
        <ele>1684.1999511719</ele>
        <time>2018-09-21T10:36:22Z</time>
      </trkpt>
      <trkpt lat="42.93274" lon="0.17042">
        <ele>1685.3000488281</ele>
        <time>2018-09-21T10:36:36Z</time>
      </trkpt>
      <trkpt lat="42.93271" lon="0.1703">
        <ele>1688.1000976562</ele>
        <time>2018-09-21T10:36:52Z</time>
      </trkpt>
      <trkpt lat="42.93272" lon="0.17018">
        <ele>1689.8999023438</ele>
        <time>2018-09-21T10:37:41Z</time>
      </trkpt>
      <trkpt lat="42.93274" lon="0.17005">
        <ele>1691.5</ele>
        <time>2018-09-21T10:37:54Z</time>
      </trkpt>
      <trkpt lat="42.93275" lon="0.16993">
        <ele>1691.8999023438</ele>
        <time>2018-09-21T10:38:09Z</time>
      </trkpt>
      <trkpt lat="42.93277" lon="0.1698">
        <ele>1693.8999023438</ele>
        <time>2018-09-21T10:38:26Z</time>
      </trkpt>
      <trkpt lat="42.93278" lon="0.16968">
        <ele>1695.8999023438</ele>
        <time>2018-09-21T10:39:59Z</time>
      </trkpt>
      <trkpt lat="42.93274" lon="0.16956">
        <ele>1698.1999511719</ele>
        <time>2018-09-21T10:40:14Z</time>
      </trkpt>
      <trkpt lat="42.93274" lon="0.16943">
        <ele>1700.1999511719</ele>
        <time>2018-09-21T10:40:30Z</time>
      </trkpt>
      <trkpt lat="42.93279" lon="0.16933">
        <ele>1701.8999023438</ele>
        <time>2018-09-21T10:41:04Z</time>
      </trkpt>
      <trkpt lat="42.93279" lon="0.1692">
        <ele>1702.6000976562</ele>
        <time>2018-09-21T10:41:20Z</time>
      </trkpt>
      <trkpt lat="42.93281" lon="0.16908">
        <ele>1703.8000488281</ele>
        <time>2018-09-21T10:41:35Z</time>
      </trkpt>
      <trkpt lat="42.93282" lon="0.16895">
        <ele>1706.5</ele>
        <time>2018-09-21T10:42:21Z</time>
      </trkpt>
      <trkpt lat="42.93286" lon="0.16884">
        <ele>1708.3000488281</ele>
        <time>2018-09-21T10:42:34Z</time>
      </trkpt>
      <trkpt lat="42.93289" lon="0.16873">
        <ele>1710</ele>
        <time>2018-09-21T10:42:46Z</time>
      </trkpt>
      <trkpt lat="42.93292" lon="0.1686">
        <ele>1710.1999511719</ele>
        <time>2018-09-21T10:42:56Z</time>
      </trkpt>
      <trkpt lat="42.93294" lon="0.16847">
        <ele>1711.3000488281</ele>
        <time>2018-09-21T10:43:06Z</time>
      </trkpt>
      <trkpt lat="42.93301" lon="0.16837">
        <ele>1715.6999511719</ele>
        <time>2018-09-21T10:43:22Z</time>
      </trkpt>
      <trkpt lat="42.93306" lon="0.16826">
        <ele>1716.3999023438</ele>
        <time>2018-09-21T10:43:32Z</time>
      </trkpt>
      <trkpt lat="42.93311" lon="0.16815">
        <ele>1718.3999023438</ele>
        <time>2018-09-21T10:43:44Z</time>
      </trkpt>
      <trkpt lat="42.93318" lon="0.16806">
        <ele>1720.8999023438</ele>
        <time>2018-09-21T10:43:54Z</time>
      </trkpt>
      <trkpt lat="42.93328" lon="0.16801">
        <ele>1721.3999023438</ele>
        <time>2018-09-21T10:44:39Z</time>
      </trkpt>
      <trkpt lat="42.93334" lon="0.16791">
        <ele>1722.1999511719</ele>
        <time>2018-09-21T10:44:50Z</time>
      </trkpt>
      <trkpt lat="42.93341" lon="0.16782">
        <ele>1722.8000488281</ele>
        <time>2018-09-21T10:45:01Z</time>
      </trkpt>
      <trkpt lat="42.93346" lon="0.16772">
        <ele>1722.5</ele>
        <time>2018-09-21T10:45:13Z</time>
      </trkpt>
      <trkpt lat="42.93351" lon="0.16761">
        <ele>1723.5</ele>
        <time>2018-09-21T10:45:28Z</time>
      </trkpt>
      <trkpt lat="42.93356" lon="0.1675">
        <ele>1725.3999023438</ele>
        <time>2018-09-21T10:45:42Z</time>
      </trkpt>
      <trkpt lat="42.93365" lon="0.16747">
        <ele>1725</ele>
        <time>2018-09-21T10:46:49Z</time>
      </trkpt>
      <trkpt lat="42.93368" lon="0.16735">
        <ele>1725.5</ele>
        <time>2018-09-21T10:47:01Z</time>
      </trkpt>
      <trkpt lat="42.93373" lon="0.16724">
        <ele>1726.5</ele>
        <time>2018-09-21T10:47:12Z</time>
      </trkpt>
      <trkpt lat="42.93378" lon="0.16714">
        <ele>1728.3999023438</ele>
        <time>2018-09-21T10:47:24Z</time>
      </trkpt>
      <trkpt lat="42.93381" lon="0.16702">
        <ele>1729.6999511719</ele>
        <time>2018-09-21T10:47:37Z</time>
      </trkpt>
      <trkpt lat="42.93385" lon="0.1669">
        <ele>1730.6999511719</ele>
        <time>2018-09-21T10:47:50Z</time>
      </trkpt>
      <trkpt lat="42.93384" lon="0.16678">
        <ele>1730.3000488281</ele>
        <time>2018-09-21T10:48:36Z</time>
      </trkpt>
      <trkpt lat="42.93392" lon="0.16672">
        <ele>1733.3999023438</ele>
        <time>2018-09-21T10:48:51Z</time>
      </trkpt>
      <trkpt lat="42.93399" lon="0.16663">
        <ele>1736.6000976562</ele>
        <time>2018-09-21T10:49:09Z</time>
      </trkpt>
      <trkpt lat="42.93405" lon="0.16654">
        <ele>1738.8999023438</ele>
        <time>2018-09-21T10:49:19Z</time>
      </trkpt>
      <trkpt lat="42.93409" lon="0.16643">
        <ele>1738</ele>
        <time>2018-09-21T10:49:30Z</time>
      </trkpt>
      <trkpt lat="42.93416" lon="0.16633">
        <ele>1738.6999511719</ele>
        <time>2018-09-21T10:49:43Z</time>
      </trkpt>
      <trkpt lat="42.9342" lon="0.16623">
        <ele>1741.1999511719</ele>
        <time>2018-09-21T10:49:54Z</time>
      </trkpt>
      <trkpt lat="42.93425" lon="0.16612">
        <ele>1741.3999023438</ele>
        <time>2018-09-21T10:50:50Z</time>
      </trkpt>
      <trkpt lat="42.93432" lon="0.16605">
        <ele>1740.3000488281</ele>
        <time>2018-09-21T10:51:00Z</time>
      </trkpt>
      <trkpt lat="42.9344" lon="0.16596">
        <ele>1739.8000488281</ele>
        <time>2018-09-21T10:51:12Z</time>
      </trkpt>
      <trkpt lat="42.93447" lon="0.16589">
        <ele>1740.3000488281</ele>
        <time>2018-09-21T10:51:24Z</time>
      </trkpt>
      <trkpt lat="42.93451" lon="0.16577">
        <ele>1742.8999023438</ele>
        <time>2018-09-21T10:51:34Z</time>
      </trkpt>
      <trkpt lat="42.9346" lon="0.16574">
        <ele>1745.3000488281</ele>
        <time>2018-09-21T10:52:17Z</time>
      </trkpt>
      <trkpt lat="42.93461" lon="0.16561">
        <ele>1746.6000976562</ele>
        <time>2018-09-21T10:52:30Z</time>
      </trkpt>
      <trkpt lat="42.93468" lon="0.16551">
        <ele>1746.8000488281</ele>
        <time>2018-09-21T10:52:43Z</time>
      </trkpt>
      <trkpt lat="42.93476" lon="0.16545">
        <ele>1747.6000976562</ele>
        <time>2018-09-21T10:53:35Z</time>
      </trkpt>
      <trkpt lat="42.93482" lon="0.16536">
        <ele>1750.6999511719</ele>
        <time>2018-09-21T10:53:48Z</time>
      </trkpt>
      <trkpt lat="42.9349" lon="0.16528">
        <ele>1755.3000488281</ele>
        <time>2018-09-21T10:54:02Z</time>
      </trkpt>
      <trkpt lat="42.93498" lon="0.16522">
        <ele>1758.8999023438</ele>
        <time>2018-09-21T10:54:16Z</time>
      </trkpt>
      <trkpt lat="42.93506" lon="0.16516">
        <ele>1755</ele>
        <time>2018-09-21T10:54:38Z</time>
      </trkpt>
      <trkpt lat="42.93511" lon="0.16506">
        <ele>1763.5</ele>
        <time>2018-09-21T10:55:14Z</time>
      </trkpt>
      <trkpt lat="42.93518" lon="0.16497">
        <ele>1763.5</ele>
        <time>2018-09-21T10:55:31Z</time>
      </trkpt>
      <trkpt lat="42.93525" lon="0.16489">
        <ele>1764.3000488281</ele>
        <time>2018-09-21T10:55:41Z</time>
      </trkpt>
      <trkpt lat="42.93528" lon="0.16476">
        <ele>1764</ele>
        <time>2018-09-21T10:55:52Z</time>
      </trkpt>
      <trkpt lat="42.93534" lon="0.16466">
        <ele>1763.6000976562</ele>
        <time>2018-09-21T10:56:23Z</time>
      </trkpt>
      <trkpt lat="42.9354" lon="0.16457">
        <ele>1758</ele>
        <time>2018-09-21T10:56:35Z</time>
      </trkpt>
      <trkpt lat="42.93549" lon="0.16451">
        <ele>1759.5</ele>
        <time>2018-09-21T10:56:47Z</time>
      </trkpt>
      <trkpt lat="42.93557" lon="0.16446">
        <ele>1766.6000976562</ele>
        <time>2018-09-21T10:57:29Z</time>
      </trkpt>
      <trkpt lat="42.93564" lon="0.16437">
        <ele>1767.6000976562</ele>
        <time>2018-09-21T10:57:41Z</time>
      </trkpt>
      <trkpt lat="42.93566" lon="0.16425">
        <ele>1769.6000976562</ele>
        <time>2018-09-21T10:57:56Z</time>
      </trkpt>
      <trkpt lat="42.93565" lon="0.16412">
        <ele>1771.1999511719</ele>
        <time>2018-09-21T10:58:04Z</time>
      </trkpt>
      <trkpt lat="42.93566" lon="0.164">
        <ele>1773</ele>
        <time>2018-09-21T10:58:15Z</time>
      </trkpt>
      <trkpt lat="42.93568" lon="0.16387">
        <ele>1775.3999023438</ele>
        <time>2018-09-21T10:58:30Z</time>
      </trkpt>
      <trkpt lat="42.93568" lon="0.16374">
        <ele>1774.8000488281</ele>
        <time>2018-09-21T10:58:40Z</time>
      </trkpt>
      <trkpt lat="42.93573" lon="0.16363">
        <ele>1781.8000488281</ele>
        <time>2018-09-21T10:59:46Z</time>
      </trkpt>
      <trkpt lat="42.9358" lon="0.16356">
        <ele>1782.6999511719</ele>
        <time>2018-09-21T11:00:02Z</time>
      </trkpt>
      <trkpt lat="42.93587" lon="0.16348">
        <ele>1785.8000488281</ele>
        <time>2018-09-21T11:00:22Z</time>
      </trkpt>
      <trkpt lat="42.93595" lon="0.16341">
        <ele>1783.8999023438</ele>
        <time>2018-09-21T11:01:05Z</time>
      </trkpt>
      <trkpt lat="42.93603" lon="0.16337">
        <ele>1782.8000488281</ele>
        <time>2018-09-21T11:01:19Z</time>
      </trkpt>
      <trkpt lat="42.93612" lon="0.16333">
        <ele>1782.6999511719</ele>
        <time>2018-09-21T11:01:31Z</time>
      </trkpt>
      <trkpt lat="42.93621" lon="0.16327">
        <ele>1784.6000976562</ele>
        <time>2018-09-21T11:01:44Z</time>
      </trkpt>
      <trkpt lat="42.93631" lon="0.1633">
        <ele>1788.3000488281</ele>
        <time>2018-09-21T11:02:01Z</time>
      </trkpt>
      <trkpt lat="42.93639" lon="0.16323">
        <ele>1789.3000488281</ele>
        <time>2018-09-21T11:02:28Z</time>
      </trkpt>
      <trkpt lat="42.93648" lon="0.16319">
        <ele>1790.1999511719</ele>
        <time>2018-09-21T11:02:39Z</time>
      </trkpt>
      <trkpt lat="42.93657" lon="0.16314">
        <ele>1789.8000488281</ele>
        <time>2018-09-21T11:02:52Z</time>
      </trkpt>
      <trkpt lat="42.93666" lon="0.1631">
        <ele>1788.3999023438</ele>
        <time>2018-09-21T11:03:04Z</time>
      </trkpt>
      <trkpt lat="42.93675" lon="0.16307">
        <ele>1786.8999023438</ele>
        <time>2018-09-21T11:03:15Z</time>
      </trkpt>
      <trkpt lat="42.93684" lon="0.16303">
        <ele>1788.6000976562</ele>
        <time>2018-09-21T11:03:28Z</time>
      </trkpt>
      <trkpt lat="42.93694" lon="0.16306">
        <ele>1790.3999023438</ele>
        <time>2018-09-21T11:03:49Z</time>
      </trkpt>
      <trkpt lat="42.93681" lon="0.16302">
        <ele>1789.8999023438</ele>
        <time>2018-09-21T13:35:19Z</time>
      </trkpt>
      <trkpt lat="42.93675" lon="0.16313">
        <ele>1792.6000976562</ele>
        <time>2018-09-21T13:37:27Z</time>
      </trkpt>
      <trkpt lat="42.93666" lon="0.16318">
        <ele>1792.5</ele>
        <time>2018-09-21T13:37:37Z</time>
      </trkpt>
      <trkpt lat="42.93659" lon="0.16327">
        <ele>1792.3000488281</ele>
        <time>2018-09-21T13:37:48Z</time>
      </trkpt>
      <trkpt lat="42.93653" lon="0.16337">
        <ele>1793.1999511719</ele>
        <time>2018-09-21T13:37:59Z</time>
      </trkpt>
      <trkpt lat="42.93647" lon="0.16345">
        <ele>1792.8999023438</ele>
        <time>2018-09-21T13:38:11Z</time>
      </trkpt>
      <trkpt lat="42.93639" lon="0.16352">
        <ele>1792.1999511719</ele>
        <time>2018-09-21T13:38:25Z</time>
      </trkpt>
      <trkpt lat="42.9363" lon="0.16357">
        <ele>1791.1000976562</ele>
        <time>2018-09-21T13:38:38Z</time>
      </trkpt>
      <trkpt lat="42.93622" lon="0.16362">
        <ele>1791.1000976562</ele>
        <time>2018-09-21T13:38:49Z</time>
      </trkpt>
      <trkpt lat="42.93613" lon="0.16367">
        <ele>1790.1999511719</ele>
        <time>2018-09-21T13:39:01Z</time>
      </trkpt>
      <trkpt lat="42.93604" lon="0.16372">
        <ele>1789.3000488281</ele>
        <time>2018-09-21T13:39:13Z</time>
      </trkpt>
      <trkpt lat="42.93595" lon="0.16375">
        <ele>1787.6000976562</ele>
        <time>2018-09-21T13:39:22Z</time>
      </trkpt>
      <trkpt lat="42.93586" lon="0.16377">
        <ele>1785.3000488281</ele>
        <time>2018-09-21T13:39:32Z</time>
      </trkpt>
      <trkpt lat="42.93577" lon="0.16374">
        <ele>1781.6000976562</ele>
        <time>2018-09-21T13:39:45Z</time>
      </trkpt>
      <trkpt lat="42.93568" lon="0.16371">
        <ele>1778.8999023438</ele>
        <time>2018-09-21T13:39:57Z</time>
      </trkpt>
      <trkpt lat="42.93568" lon="0.16383">
        <ele>1777.1000976562</ele>
        <time>2018-09-21T13:40:19Z</time>
      </trkpt>
      <trkpt lat="42.93568" lon="0.16396">
        <ele>1775.3999023438</ele>
        <time>2018-09-21T13:40:30Z</time>
      </trkpt>
      <trkpt lat="42.93565" lon="0.16408">
        <ele>1774.8999023438</ele>
        <time>2018-09-21T13:40:41Z</time>
      </trkpt>
      <trkpt lat="42.93567" lon="0.16421">
        <ele>1771.8999023438</ele>
        <time>2018-09-21T13:40:55Z</time>
      </trkpt>
      <trkpt lat="42.93566" lon="0.16433">
        <ele>1772.3000488281</ele>
        <time>2018-09-21T13:41:10Z</time>
      </trkpt>
      <trkpt lat="42.9356" lon="0.16443">
        <ele>1770.3999023438</ele>
        <time>2018-09-21T13:41:22Z</time>
      </trkpt>
      <trkpt lat="42.93554" lon="0.16453">
        <ele>1769.6000976562</ele>
        <time>2018-09-21T13:41:34Z</time>
      </trkpt>
      <trkpt lat="42.93546" lon="0.16461">
        <ele>1768.1999511719</ele>
        <time>2018-09-21T13:41:47Z</time>
      </trkpt>
      <trkpt lat="42.93541" lon="0.16471">
        <ele>1768</ele>
        <time>2018-09-21T13:42:02Z</time>
      </trkpt>
      <trkpt lat="42.93533" lon="0.1648">
        <ele>1767</ele>
        <time>2018-09-21T13:42:16Z</time>
      </trkpt>
      <trkpt lat="42.93525" lon="0.16488">
        <ele>1763.5</ele>
        <time>2018-09-21T13:42:33Z</time>
      </trkpt>
      <trkpt lat="42.93517" lon="0.16494">
        <ele>1760.8999023438</ele>
        <time>2018-09-21T13:42:41Z</time>
      </trkpt>
      <trkpt lat="42.9351" lon="0.16503">
        <ele>1759.3999023438</ele>
        <time>2018-09-21T13:42:51Z</time>
      </trkpt>
      <trkpt lat="42.93503" lon="0.16512">
        <ele>1759.1000976562</ele>
        <time>2018-09-21T13:43:01Z</time>
      </trkpt>
      <trkpt lat="42.93496" lon="0.1652">
        <ele>1757.1000976562</ele>
        <time>2018-09-21T13:43:13Z</time>
      </trkpt>
      <trkpt lat="42.93488" lon="0.16527">
        <ele>1755.6999511719</ele>
        <time>2018-09-21T13:43:24Z</time>
      </trkpt>
      <trkpt lat="42.9348" lon="0.16535">
        <ele>1754.1999511719</ele>
        <time>2018-09-21T13:43:34Z</time>
      </trkpt>
      <trkpt lat="42.93473" lon="0.16542">
        <ele>1752.5</ele>
        <time>2018-09-21T13:43:43Z</time>
      </trkpt>
      <trkpt lat="42.93465" lon="0.16549">
        <ele>1751.3000488281</ele>
        <time>2018-09-21T13:43:54Z</time>
      </trkpt>
      <trkpt lat="42.93458" lon="0.16557">
        <ele>1750</ele>
        <time>2018-09-21T13:44:04Z</time>
      </trkpt>
      <trkpt lat="42.93455" lon="0.1657">
        <ele>1750.3999023438</ele>
        <time>2018-09-21T13:44:17Z</time>
      </trkpt>
      <trkpt lat="42.93451" lon="0.16582">
        <ele>1749.6999511719</ele>
        <time>2018-09-21T13:44:27Z</time>
      </trkpt>
      <trkpt lat="42.93446" lon="0.16591">
        <ele>1747.8000488281</ele>
        <time>2018-09-21T13:44:38Z</time>
      </trkpt>
      <trkpt lat="42.93438" lon="0.166">
        <ele>1746</ele>
        <time>2018-09-21T13:44:48Z</time>
      </trkpt>
      <trkpt lat="42.93429" lon="0.16604">
        <ele>1738.3999023438</ele>
        <time>2018-09-21T13:45:07Z</time>
      </trkpt>
      <trkpt lat="42.93423" lon="0.16614">
        <ele>1737.8000488281</ele>
        <time>2018-09-21T13:45:17Z</time>
      </trkpt>
      <trkpt lat="42.93417" lon="0.16624">
        <ele>1737.8999023438</ele>
        <time>2018-09-21T13:45:30Z</time>
      </trkpt>
      <trkpt lat="42.93412" lon="0.16634">
        <ele>1738</ele>
        <time>2018-09-21T13:45:39Z</time>
      </trkpt>
      <trkpt lat="42.93406" lon="0.16645">
        <ele>1738</ele>
        <time>2018-09-21T13:45:47Z</time>
      </trkpt>
      <trkpt lat="42.93401" lon="0.16657">
        <ele>1738.5</ele>
        <time>2018-09-21T13:45:59Z</time>
      </trkpt>
      <trkpt lat="42.93395" lon="0.16666">
        <ele>1737.1999511719</ele>
        <time>2018-09-21T13:46:11Z</time>
      </trkpt>
      <trkpt lat="42.93387" lon="0.16673">
        <ele>1735.1999511719</ele>
        <time>2018-09-21T13:46:20Z</time>
      </trkpt>
      <trkpt lat="42.93385" lon="0.16685">
        <ele>1734</ele>
        <time>2018-09-21T13:46:31Z</time>
      </trkpt>
      <trkpt lat="42.93381" lon="0.16697">
        <ele>1733.8999023438</ele>
        <time>2018-09-21T13:46:43Z</time>
      </trkpt>
      <trkpt lat="42.93378" lon="0.16709">
        <ele>1732.8000488281</ele>
        <time>2018-09-21T13:46:53Z</time>
      </trkpt>
      <trkpt lat="42.93373" lon="0.1672">
        <ele>1730.8999023438</ele>
        <time>2018-09-21T13:47:04Z</time>
      </trkpt>
      <trkpt lat="42.93368" lon="0.16731">
        <ele>1731.8000488281</ele>
        <time>2018-09-21T13:47:16Z</time>
      </trkpt>
      <trkpt lat="42.93363" lon="0.16742">
        <ele>1730.3999023438</ele>
        <time>2018-09-21T13:47:26Z</time>
      </trkpt>
      <trkpt lat="42.93358" lon="0.16754">
        <ele>1729.6000976562</ele>
        <time>2018-09-21T13:47:38Z</time>
      </trkpt>
      <trkpt lat="42.93353" lon="0.16764">
        <ele>1729</ele>
        <time>2018-09-21T13:47:50Z</time>
      </trkpt>
      <trkpt lat="42.93348" lon="0.16775">
        <ele>1727.6999511719</ele>
        <time>2018-09-21T13:48:00Z</time>
      </trkpt>
      <trkpt lat="42.93342" lon="0.16784">
        <ele>1725.1999511719</ele>
        <time>2018-09-21T13:48:13Z</time>
      </trkpt>
      <trkpt lat="42.93334" lon="0.16793">
        <ele>1723</ele>
        <time>2018-09-21T13:48:23Z</time>
      </trkpt>
      <trkpt lat="42.93328" lon="0.16802">
        <ele>1721.3000488281</ele>
        <time>2018-09-21T13:48:32Z</time>
      </trkpt>
      <trkpt lat="42.9332" lon="0.1681">
        <ele>1719.3999023438</ele>
        <time>2018-09-21T13:48:42Z</time>
      </trkpt>
      <trkpt lat="42.93314" lon="0.16819">
        <ele>1717.3999023438</ele>
        <time>2018-09-21T13:48:51Z</time>
      </trkpt>
      <trkpt lat="42.93309" lon="0.16831">
        <ele>1716.8999023438</ele>
        <time>2018-09-21T13:49:02Z</time>
      </trkpt>
      <trkpt lat="42.93305" lon="0.16843">
        <ele>1717.3000488281</ele>
        <time>2018-09-21T13:49:13Z</time>
      </trkpt>
      <trkpt lat="42.93298" lon="0.16851">
        <ele>1717.1999511719</ele>
        <time>2018-09-21T13:49:22Z</time>
      </trkpt>
      <trkpt lat="42.93295" lon="0.16863">
        <ele>1717.1000976562</ele>
        <time>2018-09-21T13:49:31Z</time>
      </trkpt>
      <trkpt lat="42.93292" lon="0.16876">
        <ele>1716.3999023438</ele>
        <time>2018-09-21T13:49:40Z</time>
      </trkpt>
      <trkpt lat="42.9329" lon="0.16889">
        <ele>1717.1999511719</ele>
        <time>2018-09-21T13:49:50Z</time>
      </trkpt>
      <trkpt lat="42.93287" lon="0.16902">
        <ele>1714.6999511719</ele>
        <time>2018-09-21T13:50:28Z</time>
      </trkpt>
      <trkpt lat="42.93284" lon="0.16914">
        <ele>1714</ele>
        <time>2018-09-21T13:50:42Z</time>
      </trkpt>
      <trkpt lat="42.9328" lon="0.16926">
        <ele>1708</ele>
        <time>2018-09-21T13:51:50Z</time>
      </trkpt>
      <trkpt lat="42.93278" lon="0.16938">
        <ele>1706.1999511719</ele>
        <time>2018-09-21T13:52:03Z</time>
      </trkpt>
      <trkpt lat="42.93275" lon="0.1695">
        <ele>1704.3000488281</ele>
        <time>2018-09-21T13:52:14Z</time>
      </trkpt>
      <trkpt lat="42.93277" lon="0.16963">
        <ele>1696.8000488281</ele>
        <time>2018-09-21T13:52:33Z</time>
      </trkpt>
      <trkpt lat="42.93276" lon="0.16976">
        <ele>1695.5</ele>
        <time>2018-09-21T13:52:47Z</time>
      </trkpt>
      <trkpt lat="42.93273" lon="0.16989">
        <ele>1695.3000488281</ele>
        <time>2018-09-21T13:52:59Z</time>
      </trkpt>
      <trkpt lat="42.93271" lon="0.17001">
        <ele>1694.8000488281</ele>
        <time>2018-09-21T13:53:13Z</time>
      </trkpt>
      <trkpt lat="42.9327" lon="0.17014">
        <ele>1693.6999511719</ele>
        <time>2018-09-21T13:53:24Z</time>
      </trkpt>
      <trkpt lat="42.9327" lon="0.17027">
        <ele>1691.6000976562</ele>
        <time>2018-09-21T13:53:33Z</time>
      </trkpt>
      <trkpt lat="42.93272" lon="0.1704">
        <ele>1691.6000976562</ele>
        <time>2018-09-21T13:53:43Z</time>
      </trkpt>
      <trkpt lat="42.93274" lon="0.17053">
        <ele>1689.5</ele>
        <time>2018-09-21T13:53:53Z</time>
      </trkpt>
      <trkpt lat="42.93274" lon="0.17065">
        <ele>1686.6999511719</ele>
        <time>2018-09-21T13:54:04Z</time>
      </trkpt>
      <trkpt lat="42.93275" lon="0.17077">
        <ele>1684.1000976562</ele>
        <time>2018-09-21T13:54:17Z</time>
      </trkpt>
      <trkpt lat="42.93276" lon="0.1709">
        <ele>1684.1999511719</ele>
        <time>2018-09-21T13:54:38Z</time>
      </trkpt>
      <trkpt lat="42.93276" lon="0.17104">
        <ele>1680.3999023438</ele>
        <time>2018-09-21T13:54:57Z</time>
      </trkpt>
      <trkpt lat="42.93272" lon="0.17115">
        <ele>1679.6000976562</ele>
        <time>2018-09-21T13:55:10Z</time>
      </trkpt>
      <trkpt lat="42.93269" lon="0.17128">
        <ele>1677.8000488281</ele>
        <time>2018-09-21T13:55:23Z</time>
      </trkpt>
      <trkpt lat="42.93266" lon="0.1714">
        <ele>1676.5</ele>
        <time>2018-09-21T13:55:34Z</time>
      </trkpt>
      <trkpt lat="42.93266" lon="0.17153">
        <ele>1674.6999511719</ele>
        <time>2018-09-21T13:55:44Z</time>
      </trkpt>
      <trkpt lat="42.93263" lon="0.17164">
        <ele>1673.6000976562</ele>
        <time>2018-09-21T13:55:54Z</time>
      </trkpt>
      <trkpt lat="42.9326" lon="0.17176">
        <ele>1673.3999023438</ele>
        <time>2018-09-21T13:56:03Z</time>
      </trkpt>
      <trkpt lat="42.93259" lon="0.17189">
        <ele>1671.8000488281</ele>
        <time>2018-09-21T13:56:14Z</time>
      </trkpt>
      <trkpt lat="42.93258" lon="0.17202">
        <ele>1663.5</ele>
        <time>2018-09-21T13:57:58Z</time>
      </trkpt>
      <trkpt lat="42.93254" lon="0.17214">
        <ele>1663.6999511719</ele>
        <time>2018-09-21T13:58:08Z</time>
      </trkpt>
      <trkpt lat="42.93251" lon="0.17227">
        <ele>1662.6000976562</ele>
        <time>2018-09-21T13:58:17Z</time>
      </trkpt>
      <trkpt lat="42.93248" lon="0.17239">
        <ele>1662.1999511719</ele>
        <time>2018-09-21T13:58:26Z</time>
      </trkpt>
      <trkpt lat="42.93248" lon="0.17252">
        <ele>1661.1999511719</ele>
        <time>2018-09-21T13:58:36Z</time>
      </trkpt>
      <trkpt lat="42.93246" lon="0.17264">
        <ele>1661.1000976562</ele>
        <time>2018-09-21T13:58:45Z</time>
      </trkpt>
      <trkpt lat="42.93245" lon="0.17278">
        <ele>1660.8000488281</ele>
        <time>2018-09-21T13:58:55Z</time>
      </trkpt>
      <trkpt lat="42.93241" lon="0.1729">
        <ele>1661.1000976562</ele>
        <time>2018-09-21T13:59:04Z</time>
      </trkpt>
      <trkpt lat="42.93238" lon="0.17303">
        <ele>1661.8000488281</ele>
        <time>2018-09-21T13:59:14Z</time>
      </trkpt>
      <trkpt lat="42.93232" lon="0.17313">
        <ele>1657.5</ele>
        <time>2018-09-21T13:59:58Z</time>
      </trkpt>
      <trkpt lat="42.93226" lon="0.17322">
        <ele>1656</ele>
        <time>2018-09-21T14:02:41Z</time>
      </trkpt>
      <trkpt lat="42.93219" lon="0.17333">
        <ele>1656.1000976562</ele>
        <time>2018-09-21T14:02:52Z</time>
      </trkpt>
      <trkpt lat="42.93215" lon="0.17344">
        <ele>1655.5</ele>
        <time>2018-09-21T14:03:01Z</time>
      </trkpt>
      <trkpt lat="42.9321" lon="0.17356">
        <ele>1655.8999023438</ele>
        <time>2018-09-21T14:03:12Z</time>
      </trkpt>
      <trkpt lat="42.93208" lon="0.17368">
        <ele>1656.3999023438</ele>
        <time>2018-09-21T14:03:21Z</time>
      </trkpt>
      <trkpt lat="42.93206" lon="0.17381">
        <ele>1656.5</ele>
        <time>2018-09-21T14:03:32Z</time>
      </trkpt>
      <trkpt lat="42.93204" lon="0.17393">
        <ele>1656.1000976562</ele>
        <time>2018-09-21T14:03:43Z</time>
      </trkpt>
      <trkpt lat="42.93201" lon="0.17405">
        <ele>1656.3999023438</ele>
        <time>2018-09-21T14:03:52Z</time>
      </trkpt>
      <trkpt lat="42.93198" lon="0.17416">
        <ele>1656.6000976562</ele>
        <time>2018-09-21T14:04:02Z</time>
      </trkpt>
      <trkpt lat="42.93194" lon="0.17429">
        <ele>1657.6000976562</ele>
        <time>2018-09-21T14:04:10Z</time>
      </trkpt>
      <trkpt lat="42.93191" lon="0.17441">
        <ele>1656.3999023438</ele>
        <time>2018-09-21T14:04:21Z</time>
      </trkpt>
      <trkpt lat="42.93189" lon="0.17454">
        <ele>1655.6000976562</ele>
        <time>2018-09-21T14:04:30Z</time>
      </trkpt>
      <trkpt lat="42.93184" lon="0.17466">
        <ele>1655.1000976562</ele>
        <time>2018-09-21T14:04:40Z</time>
      </trkpt>
      <trkpt lat="42.93183" lon="0.17478">
        <ele>1653.5</ele>
        <time>2018-09-21T14:04:50Z</time>
      </trkpt>
      <trkpt lat="42.93186" lon="0.1749">
        <ele>1651.1000976562</ele>
        <time>2018-09-21T14:05:01Z</time>
      </trkpt>
      <trkpt lat="42.93179" lon="0.17499">
        <ele>1650.8000488281</ele>
        <time>2018-09-21T14:05:10Z</time>
      </trkpt>
      <trkpt lat="42.93181" lon="0.17511">
        <ele>1648.6999511719</ele>
        <time>2018-09-21T14:05:22Z</time>
      </trkpt>
      <trkpt lat="42.93183" lon="0.17523">
        <ele>1648.1999511719</ele>
        <time>2018-09-21T14:05:34Z</time>
      </trkpt>
      <trkpt lat="42.93178" lon="0.17534">
        <ele>1648</ele>
        <time>2018-09-21T14:05:45Z</time>
      </trkpt>
      <trkpt lat="42.9317" lon="0.17539">
        <ele>1649.3000488281</ele>
        <time>2018-09-21T14:05:56Z</time>
      </trkpt>
      <trkpt lat="42.93164" lon="0.17549">
        <ele>1648.8999023438</ele>
        <time>2018-09-21T14:06:12Z</time>
      </trkpt>
      <trkpt lat="42.93159" lon="0.1756">
        <ele>1648.3999023438</ele>
        <time>2018-09-21T14:06:23Z</time>
      </trkpt>
      <trkpt lat="42.93154" lon="0.17572">
        <ele>1647.1999511719</ele>
        <time>2018-09-21T14:06:33Z</time>
      </trkpt>
      <trkpt lat="42.93152" lon="0.17584">
        <ele>1646.6000976562</ele>
        <time>2018-09-21T14:06:43Z</time>
      </trkpt>
      <trkpt lat="42.9315" lon="0.17597">
        <ele>1644.8000488281</ele>
        <time>2018-09-21T14:06:53Z</time>
      </trkpt>
      <trkpt lat="42.93147" lon="0.17609">
        <ele>1643.8999023438</ele>
        <time>2018-09-21T14:07:03Z</time>
      </trkpt>
      <trkpt lat="42.93144" lon="0.17621">
        <ele>1644.8000488281</ele>
        <time>2018-09-21T14:07:12Z</time>
      </trkpt>
      <trkpt lat="42.93139" lon="0.17632">
        <ele>1645.6999511719</ele>
        <time>2018-09-21T14:07:21Z</time>
      </trkpt>
      <trkpt lat="42.93134" lon="0.17642">
        <ele>1645.3000488281</ele>
        <time>2018-09-21T14:07:33Z</time>
      </trkpt>
      <trkpt lat="42.9313" lon="0.17655">
        <ele>1645.1000976562</ele>
        <time>2018-09-21T14:07:42Z</time>
      </trkpt>
      <trkpt lat="42.93126" lon="0.17666">
        <ele>1644.8000488281</ele>
        <time>2018-09-21T14:07:50Z</time>
      </trkpt>
      <trkpt lat="42.93123" lon="0.17678">
        <ele>1643.8999023438</ele>
        <time>2018-09-21T14:08:07Z</time>
      </trkpt>
      <trkpt lat="42.93119" lon="0.17689">
        <ele>1642.1000976562</ele>
        <time>2018-09-21T14:08:17Z</time>
      </trkpt>
      <trkpt lat="42.93116" lon="0.17702">
        <ele>1640.6999511719</ele>
        <time>2018-09-21T14:08:26Z</time>
      </trkpt>
      <trkpt lat="42.93112" lon="0.17713">
        <ele>1640.3999023438</ele>
        <time>2018-09-21T14:08:35Z</time>
      </trkpt>
      <trkpt lat="42.93107" lon="0.17725">
        <ele>1639.8999023438</ele>
        <time>2018-09-21T14:08:46Z</time>
      </trkpt>
      <trkpt lat="42.93102" lon="0.17735">
        <ele>1639.1000976562</ele>
        <time>2018-09-21T14:08:57Z</time>
      </trkpt>
      <trkpt lat="42.93095" lon="0.17744">
        <ele>1638.5</ele>
        <time>2018-09-21T14:09:06Z</time>
      </trkpt>
      <trkpt lat="42.9309" lon="0.17754">
        <ele>1637</ele>
        <time>2018-09-21T14:09:17Z</time>
      </trkpt>
      <trkpt lat="42.93084" lon="0.17764">
        <ele>1636.3999023438</ele>
        <time>2018-09-21T14:09:27Z</time>
      </trkpt>
      <trkpt lat="42.93078" lon="0.17775">
        <ele>1636.5</ele>
        <time>2018-09-21T14:09:36Z</time>
      </trkpt>
      <trkpt lat="42.93073" lon="0.17785">
        <ele>1634.8999023438</ele>
        <time>2018-09-21T14:09:46Z</time>
      </trkpt>
      <trkpt lat="42.93068" lon="0.17797">
        <ele>1632.8000488281</ele>
        <time>2018-09-21T14:09:56Z</time>
      </trkpt>
      <trkpt lat="42.93063" lon="0.17808">
        <ele>1631.3999023438</ele>
        <time>2018-09-21T14:10:06Z</time>
      </trkpt>
      <trkpt lat="42.93057" lon="0.17818">
        <ele>1630.5</ele>
        <time>2018-09-21T14:10:45Z</time>
      </trkpt>
      <trkpt lat="42.9305" lon="0.17827">
        <ele>1630</ele>
        <time>2018-09-21T14:10:54Z</time>
      </trkpt>
      <trkpt lat="42.93044" lon="0.17836">
        <ele>1629</ele>
        <time>2018-09-21T14:11:18Z</time>
      </trkpt>
      <trkpt lat="42.93037" lon="0.17846">
        <ele>1629.1000976562</ele>
        <time>2018-09-21T14:11:28Z</time>
      </trkpt>
      <trkpt lat="42.9303" lon="0.17855">
        <ele>1627.8000488281</ele>
        <time>2018-09-21T14:11:39Z</time>
      </trkpt>
      <trkpt lat="42.93024" lon="0.17864">
        <ele>1627.6000976562</ele>
        <time>2018-09-21T14:11:47Z</time>
      </trkpt>
      <trkpt lat="42.93016" lon="0.17874">
        <ele>1620</ele>
        <time>2018-09-21T14:12:13Z</time>
      </trkpt>
      <trkpt lat="42.9301" lon="0.17883">
        <ele>1619.8999023438</ele>
        <time>2018-09-21T14:12:22Z</time>
      </trkpt>
      <trkpt lat="42.93005" lon="0.17894">
        <ele>1620</ele>
        <time>2018-09-21T14:12:31Z</time>
      </trkpt>
      <trkpt lat="42.93001" lon="0.17906">
        <ele>1619.3000488281</ele>
        <time>2018-09-21T14:12:40Z</time>
      </trkpt>
      <trkpt lat="42.92997" lon="0.17918">
        <ele>1618.8000488281</ele>
        <time>2018-09-21T14:12:48Z</time>
      </trkpt>
      <trkpt lat="42.92991" lon="0.17929">
        <ele>1617</ele>
        <time>2018-09-21T14:12:57Z</time>
      </trkpt>
      <trkpt lat="42.92986" lon="0.17939">
        <ele>1616.6000976562</ele>
        <time>2018-09-21T14:13:06Z</time>
      </trkpt>
      <trkpt lat="42.92981" lon="0.17951">
        <ele>1615.6999511719</ele>
        <time>2018-09-21T14:13:15Z</time>
      </trkpt>
      <trkpt lat="42.92976" lon="0.17962">
        <ele>1615.1999511719</ele>
        <time>2018-09-21T14:13:24Z</time>
      </trkpt>
      <trkpt lat="42.92972" lon="0.17973">
        <ele>1614.5</ele>
        <time>2018-09-21T14:13:32Z</time>
      </trkpt>
      <trkpt lat="42.92968" lon="0.17985">
        <ele>1613.3999023438</ele>
        <time>2018-09-21T14:13:42Z</time>
      </trkpt>
      <trkpt lat="42.92965" lon="0.17996">
        <ele>1611.8999023438</ele>
        <time>2018-09-21T14:13:50Z</time>
      </trkpt>
      <trkpt lat="42.92964" lon="0.18008">
        <ele>1610.1999511719</ele>
        <time>2018-09-21T14:13:59Z</time>
      </trkpt>
      <trkpt lat="42.92965" lon="0.18021">
        <ele>1609.6999511719</ele>
        <time>2018-09-21T14:14:08Z</time>
      </trkpt>
      <trkpt lat="42.92966" lon="0.18034">
        <ele>1609.6999511719</ele>
        <time>2018-09-21T14:14:17Z</time>
      </trkpt>
      <trkpt lat="42.92966" lon="0.18047">
        <ele>1609.8999023438</ele>
        <time>2018-09-21T14:14:26Z</time>
      </trkpt>
      <trkpt lat="42.92962" lon="0.18058">
        <ele>1610.1999511719</ele>
        <time>2018-09-21T14:14:35Z</time>
      </trkpt>
      <trkpt lat="42.92956" lon="0.18069">
        <ele>1609.3999023438</ele>
        <time>2018-09-21T14:14:48Z</time>
      </trkpt>
      <trkpt lat="42.9295" lon="0.18079">
        <ele>1609.8000488281</ele>
        <time>2018-09-21T14:14:55Z</time>
      </trkpt>
      <trkpt lat="42.92944" lon="0.18088">
        <ele>1610.3000488281</ele>
        <time>2018-09-21T14:15:03Z</time>
      </trkpt>
      <trkpt lat="42.92937" lon="0.18097">
        <ele>1610.6999511719</ele>
        <time>2018-09-21T14:15:13Z</time>
      </trkpt>
      <trkpt lat="42.9293" lon="0.18107">
        <ele>1611.5</ele>
        <time>2018-09-21T14:15:23Z</time>
      </trkpt>
      <trkpt lat="42.92925" lon="0.18117">
        <ele>1611</ele>
        <time>2018-09-21T14:15:33Z</time>
      </trkpt>
      <trkpt lat="42.92918" lon="0.18126">
        <ele>1611</ele>
        <time>2018-09-21T14:15:43Z</time>
      </trkpt>
      <trkpt lat="42.92908" lon="0.18132">
        <ele>1609.5</ele>
        <time>2018-09-21T14:15:52Z</time>
      </trkpt>
      <trkpt lat="42.929" lon="0.18138">
        <ele>1609.8000488281</ele>
        <time>2018-09-21T14:16:01Z</time>
      </trkpt>
      <trkpt lat="42.92893" lon="0.18146">
        <ele>1609.8000488281</ele>
        <time>2018-09-21T14:16:11Z</time>
      </trkpt>
      <trkpt lat="42.92887" lon="0.18157">
        <ele>1610.3999023438</ele>
        <time>2018-09-21T14:16:22Z</time>
      </trkpt>
      <trkpt lat="42.92879" lon="0.18167">
        <ele>1611.6999511719</ele>
        <time>2018-09-21T14:16:32Z</time>
      </trkpt>
      <trkpt lat="42.92871" lon="0.18176">
        <ele>1611.6000976562</ele>
        <time>2018-09-21T14:16:41Z</time>
      </trkpt>
      <trkpt lat="42.92865" lon="0.18184">
        <ele>1610.6000976562</ele>
        <time>2018-09-21T14:16:50Z</time>
      </trkpt>
      <trkpt lat="42.92857" lon="0.18194">
        <ele>1611.5</ele>
        <time>2018-09-21T14:17:13Z</time>
      </trkpt>
      <trkpt lat="42.92852" lon="0.18204">
        <ele>1611.1999511719</ele>
        <time>2018-09-21T14:17:25Z</time>
      </trkpt>
      <trkpt lat="42.92847" lon="0.18215">
        <ele>1609.3999023438</ele>
        <time>2018-09-21T14:17:35Z</time>
      </trkpt>
      <trkpt lat="42.92843" lon="0.18227">
        <ele>1607.1999511719</ele>
        <time>2018-09-21T14:17:45Z</time>
      </trkpt>
      <trkpt lat="42.92839" lon="0.18239">
        <ele>1605.8999023438</ele>
        <time>2018-09-21T14:17:54Z</time>
      </trkpt>
      <trkpt lat="42.92835" lon="0.1825">
        <ele>1606.3000488281</ele>
        <time>2018-09-21T14:18:05Z</time>
      </trkpt>
      <trkpt lat="42.92829" lon="0.1826">
        <ele>1605.6999511719</ele>
        <time>2018-09-21T14:18:13Z</time>
      </trkpt>
      <trkpt lat="42.92823" lon="0.18271">
        <ele>1605</ele>
        <time>2018-09-21T14:18:24Z</time>
      </trkpt>
      <trkpt lat="42.92817" lon="0.18281">
        <ele>1603.8999023438</ele>
        <time>2018-09-21T14:18:34Z</time>
      </trkpt>
      <trkpt lat="42.92812" lon="0.18291">
        <ele>1601.6999511719</ele>
        <time>2018-09-21T14:18:44Z</time>
      </trkpt>
      <trkpt lat="42.92808" lon="0.18303">
        <ele>1600.5</ele>
        <time>2018-09-21T14:18:56Z</time>
      </trkpt>
      <trkpt lat="42.92807" lon="0.18316">
        <ele>1599.1999511719</ele>
        <time>2018-09-21T14:19:08Z</time>
      </trkpt>
      <trkpt lat="42.92804" lon="0.18328">
        <ele>1596.6000976562</ele>
        <time>2018-09-21T14:19:19Z</time>
      </trkpt>
      <trkpt lat="42.92801" lon="0.1834">
        <ele>1595.3999023438</ele>
        <time>2018-09-21T14:19:30Z</time>
      </trkpt>
      <trkpt lat="42.92799" lon="0.18353">
        <ele>1594.1000976562</ele>
        <time>2018-09-21T14:19:46Z</time>
      </trkpt>
      <trkpt lat="42.92797" lon="0.18366">
        <ele>1592.6999511719</ele>
        <time>2018-09-21T14:19:57Z</time>
      </trkpt>
      <trkpt lat="42.92795" lon="0.18378">
        <ele>1591.1000976562</ele>
        <time>2018-09-21T14:20:09Z</time>
      </trkpt>
      <trkpt lat="42.92789" lon="0.18389">
        <ele>1589.1000976562</ele>
        <time>2018-09-21T14:20:26Z</time>
      </trkpt>
      <trkpt lat="42.92784" lon="0.184">
        <ele>1587.8000488281</ele>
        <time>2018-09-21T14:20:37Z</time>
      </trkpt>
      <trkpt lat="42.92777" lon="0.18408">
        <ele>1586.3000488281</ele>
        <time>2018-09-21T14:20:48Z</time>
      </trkpt>
      <trkpt lat="42.9277" lon="0.18416">
        <ele>1585.6000976562</ele>
        <time>2018-09-21T14:20:57Z</time>
      </trkpt>
      <trkpt lat="42.92764" lon="0.18426">
        <ele>1586</ele>
        <time>2018-09-21T14:21:10Z</time>
      </trkpt>
      <trkpt lat="42.92757" lon="0.18436">
        <ele>1584.6000976562</ele>
        <time>2018-09-21T14:21:21Z</time>
      </trkpt>
      <trkpt lat="42.92748" lon="0.18441">
        <ele>1583.5</ele>
        <time>2018-09-21T14:21:30Z</time>
      </trkpt>
      <trkpt lat="42.92736" lon="0.18448">
        <ele>1578.1999511719</ele>
        <time>2018-09-21T14:22:57Z</time>
      </trkpt>
      <trkpt lat="42.92727" lon="0.18454">
        <ele>1577.5</ele>
        <time>2018-09-21T14:23:08Z</time>
      </trkpt>
      <trkpt lat="42.9272" lon="0.18461">
        <ele>1576.8000488281</ele>
        <time>2018-09-21T14:23:17Z</time>
      </trkpt>
      <trkpt lat="42.92712" lon="0.18467">
        <ele>1576.5</ele>
        <time>2018-09-21T14:23:27Z</time>
      </trkpt>
      <trkpt lat="42.92704" lon="0.18476">
        <ele>1576.1999511719</ele>
        <time>2018-09-21T14:23:35Z</time>
      </trkpt>
      <trkpt lat="42.92696" lon="0.18485">
        <ele>1575.3999023438</ele>
        <time>2018-09-21T14:23:47Z</time>
      </trkpt>
      <trkpt lat="42.9269" lon="0.18495">
        <ele>1573.5</ele>
        <time>2018-09-21T14:23:58Z</time>
      </trkpt>
      <trkpt lat="42.92682" lon="0.18501">
        <ele>1570.5</ele>
        <time>2018-09-21T14:24:18Z</time>
      </trkpt>
      <trkpt lat="42.92674" lon="0.18511">
        <ele>1569</ele>
        <time>2018-09-21T14:24:28Z</time>
      </trkpt>
      <trkpt lat="42.92669" lon="0.18521">
        <ele>1567.3999023438</ele>
        <time>2018-09-21T14:24:38Z</time>
      </trkpt>
      <trkpt lat="42.92664" lon="0.18531">
        <ele>1565.6000976562</ele>
        <time>2018-09-21T14:24:49Z</time>
      </trkpt>
      <trkpt lat="42.92658" lon="0.18541">
        <ele>1565</ele>
        <time>2018-09-21T14:24:57Z</time>
      </trkpt>
      <trkpt lat="42.92652" lon="0.18551">
        <ele>1562.5</ele>
        <time>2018-09-21T14:25:08Z</time>
      </trkpt>
      <trkpt lat="42.92646" lon="0.18562">
        <ele>1561.3000488281</ele>
        <time>2018-09-21T14:25:19Z</time>
      </trkpt>
      <trkpt lat="42.9264" lon="0.18572">
        <ele>1561</ele>
        <time>2018-09-21T14:25:29Z</time>
      </trkpt>
      <trkpt lat="42.92636" lon="0.18584">
        <ele>1559.8000488281</ele>
        <time>2018-09-21T14:25:40Z</time>
      </trkpt>
      <trkpt lat="42.9263" lon="0.18594">
        <ele>1557.6000976562</ele>
        <time>2018-09-21T14:25:53Z</time>
      </trkpt>
      <trkpt lat="42.92626" lon="0.18606">
        <ele>1554.8000488281</ele>
        <time>2018-09-21T14:26:10Z</time>
      </trkpt>
      <trkpt lat="42.92622" lon="0.18617">
        <ele>1553.1999511719</ele>
        <time>2018-09-21T14:26:23Z</time>
      </trkpt>
      <trkpt lat="42.92622" lon="0.18629">
        <ele>1552.1999511719</ele>
        <time>2018-09-21T14:26:44Z</time>
      </trkpt>
      <trkpt lat="42.92618" lon="0.18641">
        <ele>1550</ele>
        <time>2018-09-21T14:27:05Z</time>
      </trkpt>
      <trkpt lat="42.92616" lon="0.18654">
        <ele>1547.0999755859</ele>
        <time>2018-09-21T14:27:30Z</time>
      </trkpt>
      <trkpt lat="42.92612" lon="0.18666">
        <ele>1543.6999511719</ele>
        <time>2018-09-21T14:28:45Z</time>
      </trkpt>
      <trkpt lat="42.92609" lon="0.18677">
        <ele>1542.0999755859</ele>
        <time>2018-09-21T14:28:55Z</time>
      </trkpt>
      <trkpt lat="42.92608" lon="0.18691">
        <ele>1540.9000244141</ele>
        <time>2018-09-21T14:29:10Z</time>
      </trkpt>
      <trkpt lat="42.92609" lon="0.18703">
        <ele>1539.5999755859</ele>
        <time>2018-09-21T14:29:20Z</time>
      </trkpt>
      <trkpt lat="42.92607" lon="0.18717">
        <ele>1538.6999511719</ele>
        <time>2018-09-21T14:29:30Z</time>
      </trkpt>
      <trkpt lat="42.92607" lon="0.18729">
        <ele>1536.9000244141</ele>
        <time>2018-09-21T14:29:43Z</time>
      </trkpt>
      <trkpt lat="42.92605" lon="0.18742">
        <ele>1536.4000244141</ele>
        <time>2018-09-21T14:29:54Z</time>
      </trkpt>
      <trkpt lat="42.92601" lon="0.18753">
        <ele>1536.1999511719</ele>
        <time>2018-09-21T14:30:06Z</time>
      </trkpt>
      <trkpt lat="42.92596" lon="0.18765">
        <ele>1535.9000244141</ele>
        <time>2018-09-21T14:30:17Z</time>
      </trkpt>
      <trkpt lat="42.92592" lon="0.18775">
        <ele>1535</ele>
        <time>2018-09-21T14:30:27Z</time>
      </trkpt>
      <trkpt lat="42.92592" lon="0.18788">
        <ele>1533</ele>
        <time>2018-09-21T14:30:40Z</time>
      </trkpt>
      <trkpt lat="42.92589" lon="0.188">
        <ele>1532</ele>
        <time>2018-09-21T14:30:54Z</time>
      </trkpt>
      <trkpt lat="42.92588" lon="0.18812">
        <ele>1529.8000488281</ele>
        <time>2018-09-21T14:31:04Z</time>
      </trkpt>
      <trkpt lat="42.92589" lon="0.18825">
        <ele>1526</ele>
        <time>2018-09-21T14:31:15Z</time>
      </trkpt>
      <trkpt lat="42.92591" lon="0.18838">
        <ele>1519.9000244141</ele>
        <time>2018-09-21T14:31:27Z</time>
      </trkpt>
      <trkpt lat="42.92591" lon="0.1885">
        <ele>1517.0999755859</ele>
        <time>2018-09-21T14:31:37Z</time>
      </trkpt>
      <trkpt lat="42.92593" lon="0.18862">
        <ele>1511.1999511719</ele>
        <time>2018-09-21T14:32:04Z</time>
      </trkpt>
      <trkpt lat="42.92599" lon="0.18871">
        <ele>1509.5</ele>
        <time>2018-09-21T14:32:16Z</time>
      </trkpt>
      <trkpt lat="42.92605" lon="0.18882">
        <ele>1507.0999755859</ele>
        <time>2018-09-21T14:32:27Z</time>
      </trkpt>
      <trkpt lat="42.92607" lon="0.18894">
        <ele>1506.5</ele>
        <time>2018-09-21T14:32:36Z</time>
      </trkpt>
      <trkpt lat="42.92612" lon="0.18906">
        <ele>1505.5999755859</ele>
        <time>2018-09-21T14:32:45Z</time>
      </trkpt>
      <trkpt lat="42.92612" lon="0.18918">
        <ele>1504.3000488281</ele>
        <time>2018-09-21T14:32:54Z</time>
      </trkpt>
      <trkpt lat="42.92612" lon="0.18931">
        <ele>1501.9000244141</ele>
        <time>2018-09-21T14:33:04Z</time>
      </trkpt>
      <trkpt lat="42.92611" lon="0.18944">
        <ele>1500.5999755859</ele>
        <time>2018-09-21T14:33:13Z</time>
      </trkpt>
      <trkpt lat="42.92608" lon="0.18956">
        <ele>1497.4000244141</ele>
        <time>2018-09-21T14:33:24Z</time>
      </trkpt>
      <trkpt lat="42.92606" lon="0.18968">
        <ele>1496.3000488281</ele>
        <time>2018-09-21T14:33:35Z</time>
      </trkpt>
      <trkpt lat="42.92605" lon="0.18981">
        <ele>1495.1999511719</ele>
        <time>2018-09-21T14:33:45Z</time>
      </trkpt>
      <trkpt lat="42.92604" lon="0.18994">
        <ele>1493.5999755859</ele>
        <time>2018-09-21T14:33:57Z</time>
      </trkpt>
      <trkpt lat="42.92598" lon="0.19006">
        <ele>1491.3000488281</ele>
        <time>2018-09-21T14:34:18Z</time>
      </trkpt>
      <trkpt lat="42.92596" lon="0.19019">
        <ele>1491</ele>
        <time>2018-09-21T14:34:31Z</time>
      </trkpt>
      <trkpt lat="42.92593" lon="0.19031">
        <ele>1490.0999755859</ele>
        <time>2018-09-21T14:34:42Z</time>
      </trkpt>
      <trkpt lat="42.9259" lon="0.19043">
        <ele>1488.5</ele>
        <time>2018-09-21T14:34:52Z</time>
      </trkpt>
      <trkpt lat="42.92586" lon="0.19055">
        <ele>1485.8000488281</ele>
        <time>2018-09-21T14:35:03Z</time>
      </trkpt>
      <trkpt lat="42.92582" lon="0.19067">
        <ele>1484.5</ele>
        <time>2018-09-21T14:35:12Z</time>
      </trkpt>
      <trkpt lat="42.92578" lon="0.19079">
        <ele>1483.0999755859</ele>
        <time>2018-09-21T14:35:20Z</time>
      </trkpt>
      <trkpt lat="42.92575" lon="0.1909">
        <ele>1481.3000488281</ele>
        <time>2018-09-21T14:35:31Z</time>
      </trkpt>
      <trkpt lat="42.92572" lon="0.19103">
        <ele>1479.5</ele>
        <time>2018-09-21T14:35:41Z</time>
      </trkpt>
      <trkpt lat="42.92569" lon="0.19114">
        <ele>1476.5999755859</ele>
        <time>2018-09-21T14:35:51Z</time>
      </trkpt>
      <trkpt lat="42.92565" lon="0.19127">
        <ele>1470.5</ele>
        <time>2018-09-21T14:36:02Z</time>
      </trkpt>
      <trkpt lat="42.92562" lon="0.19139">
        <ele>1470.3000488281</ele>
        <time>2018-09-21T14:36:12Z</time>
      </trkpt>
      <trkpt lat="42.92559" lon="0.19152">
        <ele>1469.1999511719</ele>
        <time>2018-09-21T14:36:22Z</time>
      </trkpt>
      <trkpt lat="42.92556" lon="0.19164">
        <ele>1468.0999755859</ele>
        <time>2018-09-21T14:36:31Z</time>
      </trkpt>
      <trkpt lat="42.92552" lon="0.19176">
        <ele>1467.9000244141</ele>
        <time>2018-09-21T14:36:40Z</time>
      </trkpt>
      <trkpt lat="42.92549" lon="0.19188">
        <ele>1468.1999511719</ele>
        <time>2018-09-21T14:36:50Z</time>
      </trkpt>
      <trkpt lat="42.92546" lon="0.19202">
        <ele>1467</ele>
        <time>2018-09-21T14:37:00Z</time>
      </trkpt>
      <trkpt lat="42.92544" lon="0.19214">
        <ele>1467</ele>
        <time>2018-09-21T14:37:09Z</time>
      </trkpt>
      <trkpt lat="42.92543" lon="0.19227">
        <ele>1465.3000488281</ele>
        <time>2018-09-21T14:37:18Z</time>
      </trkpt>
      <trkpt lat="42.92541" lon="0.1924">
        <ele>1464.5</ele>
        <time>2018-09-21T14:37:28Z</time>
      </trkpt>
      <trkpt lat="42.92539" lon="0.19253">
        <ele>1463.6999511719</ele>
        <time>2018-09-21T14:37:40Z</time>
      </trkpt>
      <trkpt lat="42.92537" lon="0.19266">
        <ele>1462.1999511719</ele>
        <time>2018-09-21T14:37:49Z</time>
      </trkpt>
      <trkpt lat="42.92533" lon="0.19277">
        <ele>1459.9000244141</ele>
        <time>2018-09-21T14:38:43Z</time>
      </trkpt>
      <trkpt lat="42.92532" lon="0.1929">
        <ele>1459.0999755859</ele>
        <time>2018-09-21T14:38:58Z</time>
      </trkpt>
      <trkpt lat="42.92536" lon="0.19302">
        <ele>1458.8000488281</ele>
        <time>2018-09-21T14:44:55Z</time>
      </trkpt>
      <trkpt lat="42.92544" lon="0.19307">
        <ele>1456.6999511719</ele>
        <time>2018-09-21T14:45:14Z</time>
      </trkpt>
      <trkpt lat="42.92551" lon="0.19315">
        <ele>1455.5</ele>
        <time>2018-09-21T14:45:27Z</time>
      </trkpt>
      <trkpt lat="42.92556" lon="0.19326">
        <ele>1454</ele>
        <time>2018-09-21T14:45:42Z</time>
      </trkpt>
      <trkpt lat="42.92564" lon="0.19333">
        <ele>1453.0999755859</ele>
        <time>2018-09-21T14:45:56Z</time>
      </trkpt>
      <trkpt lat="42.92572" lon="0.19336">
        <ele>1451.9000244141</ele>
        <time>2018-09-21T14:46:11Z</time>
      </trkpt>
      <trkpt lat="42.92582" lon="0.19339">
        <ele>1450.5999755859</ele>
        <time>2018-09-21T14:46:21Z</time>
      </trkpt>
      <trkpt lat="42.92591" lon="0.1934">
        <ele>1450.4000244141</ele>
        <time>2018-09-21T14:46:29Z</time>
      </trkpt>
      <trkpt lat="42.92599" lon="0.19347">
        <ele>1448.6999511719</ele>
        <time>2018-09-21T14:47:34Z</time>
      </trkpt>
      <trkpt lat="42.92609" lon="0.19346">
        <ele>1446.5</ele>
        <time>2018-09-21T14:47:55Z</time>
      </trkpt>
      <trkpt lat="42.92616" lon="0.19354">
        <ele>1444.9000244141</ele>
        <time>2018-09-21T14:48:13Z</time>
      </trkpt>
      <trkpt lat="42.92621" lon="0.19365">
        <ele>1443.8000488281</ele>
        <time>2018-09-21T14:48:26Z</time>
      </trkpt>
      <trkpt lat="42.92622" lon="0.19378">
        <ele>1441.5999755859</ele>
        <time>2018-09-21T14:48:36Z</time>
      </trkpt>
      <trkpt lat="42.92622" lon="0.19391">
        <ele>1438.4000244141</ele>
        <time>2018-09-21T14:48:49Z</time>
      </trkpt>
      <trkpt lat="42.92625" lon="0.19402">
        <ele>1436.0999755859</ele>
        <time>2018-09-21T14:49:04Z</time>
      </trkpt>
      <trkpt lat="42.92627" lon="0.19416">
        <ele>1435.5</ele>
        <time>2018-09-21T14:49:20Z</time>
      </trkpt>
      <trkpt lat="42.92628" lon="0.19428">
        <ele>1434.6999511719</ele>
        <time>2018-09-21T14:49:34Z</time>
      </trkpt>
      <trkpt lat="42.92626" lon="0.19445">
        <ele>1433.5</ele>
        <time>2018-09-21T14:49:51Z</time>
      </trkpt>
      <trkpt lat="42.92628" lon="0.19457">
        <ele>1430.3000488281</ele>
        <time>2018-09-21T14:50:09Z</time>
      </trkpt>
      <trkpt lat="42.92628" lon="0.1947">
        <ele>1428</ele>
        <time>2018-09-21T14:50:25Z</time>
      </trkpt>
      <trkpt lat="42.92628" lon="0.19482">
        <ele>1424.3000488281</ele>
        <time>2018-09-21T14:50:48Z</time>
      </trkpt>
      <trkpt lat="42.92628" lon="0.19495">
        <ele>1422.8000488281</ele>
        <time>2018-09-21T14:51:03Z</time>
      </trkpt>
      <trkpt lat="42.92622" lon="0.19511">
        <ele>1420.9000244141</ele>
        <time>2018-09-21T14:51:21Z</time>
      </trkpt>
      <trkpt lat="42.92626" lon="0.19522">
        <ele>1415.6999511719</ele>
        <time>2018-09-21T14:51:32Z</time>
      </trkpt>
      <trkpt lat="42.92627" lon="0.19536">
        <ele>1414.6999511719</ele>
        <time>2018-09-21T14:51:42Z</time>
      </trkpt>
      <trkpt lat="42.9263" lon="0.19549">
        <ele>1412.9000244141</ele>
        <time>2018-09-21T14:51:56Z</time>
      </trkpt>
      <trkpt lat="42.92633" lon="0.1956">
        <ele>1409.0999755859</ele>
        <time>2018-09-21T14:52:12Z</time>
      </trkpt>
      <trkpt lat="42.92633" lon="0.19574">
        <ele>1406.6999511719</ele>
        <time>2018-09-21T14:52:27Z</time>
      </trkpt>
      <trkpt lat="42.9264" lon="0.19582">
        <ele>1404.6999511719</ele>
        <time>2018-09-21T14:52:43Z</time>
      </trkpt>
      <trkpt lat="42.92648" lon="0.19589">
        <ele>1402.5999755859</ele>
        <time>2018-09-21T14:52:58Z</time>
      </trkpt>
      <trkpt lat="42.92657" lon="0.19592">
        <ele>1400.5</ele>
        <time>2018-09-21T14:53:16Z</time>
      </trkpt>
      <trkpt lat="42.92663" lon="0.19601">
        <ele>1399</ele>
        <time>2018-09-21T14:53:28Z</time>
      </trkpt>
      <trkpt lat="42.92668" lon="0.19612">
        <ele>1398.4000244141</ele>
        <time>2018-09-21T14:53:44Z</time>
      </trkpt>
      <trkpt lat="42.92673" lon="0.19621">
        <ele>1393.5999755859</ele>
        <time>2018-09-21T14:54:21Z</time>
      </trkpt>
      <trkpt lat="42.92682" lon="0.19626">
        <ele>1391.5</ele>
        <time>2018-09-21T14:54:36Z</time>
      </trkpt>
      <trkpt lat="42.92688" lon="0.19635">
        <ele>1385</ele>
        <time>2018-09-21T14:55:25Z</time>
      </trkpt>
      <trkpt lat="42.9269" lon="0.19647">
        <ele>1384.1999511719</ele>
        <time>2018-09-21T14:56:48Z</time>
      </trkpt>
      <trkpt lat="42.92687" lon="0.1966">
        <ele>1382.5</ele>
        <time>2018-09-21T14:57:01Z</time>
      </trkpt>
      <trkpt lat="42.92689" lon="0.19672">
        <ele>1377.6999511719</ele>
        <time>2018-09-21T14:57:18Z</time>
      </trkpt>
      <trkpt lat="42.92685" lon="0.19683">
        <ele>1376.1999511719</ele>
        <time>2018-09-21T14:57:29Z</time>
      </trkpt>
      <trkpt lat="42.92688" lon="0.19695">
        <ele>1369.8000488281</ele>
        <time>2018-09-21T14:57:50Z</time>
      </trkpt>
      <trkpt lat="42.92692" lon="0.19707">
        <ele>1366.8000488281</ele>
        <time>2018-09-21T14:58:04Z</time>
      </trkpt>
      <trkpt lat="42.92696" lon="0.19719">
        <ele>1365.6999511719</ele>
        <time>2018-09-21T14:58:20Z</time>
      </trkpt>
      <trkpt lat="42.92699" lon="0.19731">
        <ele>1363</ele>
        <time>2018-09-21T14:58:35Z</time>
      </trkpt>
      <trkpt lat="42.92699" lon="0.19743">
        <ele>1360.8000488281</ele>
        <time>2018-09-21T14:58:51Z</time>
      </trkpt>
      <trkpt lat="42.92699" lon="0.19756">
        <ele>1357.0999755859</ele>
        <time>2018-09-21T14:59:13Z</time>
      </trkpt>
      <trkpt lat="42.92696" lon="0.19768">
        <ele>1354.9000244141</ele>
        <time>2018-09-21T14:59:25Z</time>
      </trkpt>
      <trkpt lat="42.92695" lon="0.19781">
        <ele>1349.5</ele>
        <time>2018-09-21T14:59:46Z</time>
      </trkpt>
      <trkpt lat="42.927" lon="0.19793">
        <ele>1348.4000244141</ele>
        <time>2018-09-21T14:59:58Z</time>
      </trkpt>
      <trkpt lat="42.92706" lon="0.19801">
        <ele>1344.4000244141</ele>
        <time>2018-09-21T15:00:19Z</time>
      </trkpt>
      <trkpt lat="42.92715" lon="0.19803">
        <ele>1343.1999511719</ele>
        <time>2018-09-21T15:00:32Z</time>
      </trkpt>
      <trkpt lat="42.92724" lon="0.19808">
        <ele>1342.5</ele>
        <time>2018-09-21T15:00:50Z</time>
      </trkpt>
      <trkpt lat="42.92718" lon="0.19817">
        <ele>1341.5</ele>
        <time>2018-09-21T15:01:22Z</time>
      </trkpt>
      <trkpt lat="42.92718" lon="0.1983">
        <ele>1340.6999511719</ele>
        <time>2018-09-21T15:01:44Z</time>
      </trkpt>
      <trkpt lat="42.92713" lon="0.19841">
        <ele>1339.6999511719</ele>
        <time>2018-09-21T15:02:06Z</time>
      </trkpt>
      <trkpt lat="42.9271" lon="0.19853">
        <ele>1336.1999511719</ele>
        <time>2018-09-21T15:02:54Z</time>
      </trkpt>
      <trkpt lat="42.92703" lon="0.19862">
        <ele>1336</ele>
        <time>2018-09-21T15:03:00Z</time>
      </trkpt>
      <trkpt lat="42.92705" lon="0.19874">
        <ele>1333.5</ele>
        <time>2018-09-21T15:03:08Z</time>
      </trkpt>
      <trkpt lat="42.92708" lon="0.19886">
        <ele>1330</ele>
        <time>2018-09-21T15:03:18Z</time>
      </trkpt>
      <trkpt lat="42.92713" lon="0.19897">
        <ele>1327.6999511719</ele>
        <time>2018-09-21T15:03:28Z</time>
      </trkpt>
      <trkpt lat="42.92718" lon="0.19908">
        <ele>1326.5999755859</ele>
        <time>2018-09-21T15:03:37Z</time>
      </trkpt>
      <trkpt lat="42.92721" lon="0.19919">
        <ele>1325.6999511719</ele>
        <time>2018-09-21T15:03:47Z</time>
      </trkpt>
    </trkseg>
  </trk>
</gpx>